Wetterdaten: Samstag, 26.12.2020
Datum Zeit Temp. Aussen Temp. o. S. Temp +5cm Feuchte Auss Luftdruck Regen Sonnenschein Regendauer Solar Windben Empfang
26.12.2020 00:00 2,0 C 1,1 C 0,5 C 96 % 1025,7 hPa 0,0 l/m 0 min 0 min 0 W/m 0,0 km/h (0 Bft) 93,62 %
26.12.2020 00:02 2,0 C 1,1 C 0,5 C 96 % 1025,7 hPa 0,0 l/m 0 min 0 min 0 W/m 0,0 km/h (0 Bft) 97,62 %
26.12.2020 00:04 2,0 C 1,1 C 0,5 C 96 % 1025,7 hPa 0,0 l/m 0 min 0 min 0 W/m 0,0 km/h (0 Bft) 95,74 %
26.12.2020 00:08 2,0 C 1,1 C 0,5 C 96 % 1025,6 hPa 0,0 l/m 0 min 0 min 0 W/m 0,0 km/h (0 Bft) 94,68 %
26.12.2020 00:10 2,0 C 1,1 C 0,5 C 96 % 1025,5 hPa 0,0 l/m 0 min 0 min 0 W/m 0,0 km/h (0 Bft) 97,87 %
26.12.2020 00:12 2,0 C 1,1 C 0,5 C 96 % 1025,5 hPa 0,0 l/m 0 min 0 min 0 W/m 0,0 km/h (0 Bft) 97,83 %
26.12.2020 00:14 2,0 C 1,1 C 0,5 C 96 % 1025,5 hPa 0,0 l/m 0 min 0 min 0 W/m 0,0 km/h (0 Bft) 95,74 %
26.12.2020 00:16 2,0 C 1,1 C 0,5 C 96 % 1025,6 hPa 0,0 l/m 0 min 0 min 0 W/m 0,0 km/h (0 Bft) 95,74 %
26.12.2020 00:18 1,9 C 1,1 C 0,5 C 96 % 1025,6 hPa 0,0 l/m 0 min 0 min 0 W/m 0,0 km/h (0 Bft) 97,87 %
26.12.2020 00:20 1,9 C 1,1 C 0,5 C 96 % 1025,6 hPa 0,0 l/m 0 min 0 min 0 W/m 0,0 km/h (0 Bft) 97,87 %
26.12.2020 00:22 1,9 C 1,1 C 0,5 C 96 % 1025,6 hPa 0,0 l/m 0 min 0 min 0 W/m 0,0 km/h (0 Bft) 95,74 %
26.12.2020 00:24 1,9 C 1,1 C 0,5 C 96 % 1025,6 hPa 0,0 l/m 0 min 0 min 0 W/m 0,0 km/h (0 Bft) 97,83 %
26.12.2020 00:26 1,9 C 1,1 C 0,5 C 96 % 1025,6 hPa 0,0 l/m 0 min 0 min 0 W/m 0,0 km/h (0 Bft) 97,87 %
26.12.2020 00:28 1,9 C 1,1 C 0,5 C 96 % 1025,7 hPa 0,0 l/m 0 min 0 min 0 W/m 0,0 km/h (0 Bft) 97,87 %
26.12.2020 00:30 1,9 C 1,1 C 0,5 C 96 % 1025,7 hPa 0,0 l/m 0 min 0 min 0 W/m 0,0 km/h (0 Bft) 97,87 %
26.12.2020 00:32 1,9 C 1,1 C 0,5 C 96 % 1025,7 hPa 0,0 l/m 0 min 0 min 0 W/m 0,0 km/h (0 Bft) 97,87 %
26.12.2020 00:34 1,9 C 1,1 C 0,5 C 96 % 1025,7 hPa 0,0 l/m 0 min 0 min 0 W/m 0,0 km/h (0 Bft) 97,87 %
26.12.2020 00:36 1,9 C 1,7 C 1,1 C 96 % 1025,6 hPa 0,0 l/m 0 min 0 min 0 W/m 0,0 km/h (0 Bft) 95,65 %
26.12.2020 00:38 1,9 C 1,7 C 1,1 C 96 % 1025,7 hPa 0,0 l/m 0 min 0 min 0 W/m 0,0 km/h (0 Bft) 97,87 %
26.12.2020 00:40 1,9 C 1,7 C 1,1 C 96 % 1025,7 hPa 0,0 l/m 0 min 0 min 0 W/m 0,0 km/h (0 Bft) 95,74 %
26.12.2020 00:42 1,9 C 1,7 C 1,1 C 96 % 1025,7 hPa 0,0 l/m 0 min 0 min 0 W/m 0,0 km/h (0 Bft) 93,62 %
26.12.2020 00:44 1,9 C 1,7 C 1,1 C 96 % 1025,7 hPa 0,0 l/m 0 min 0 min 0 W/m 0,0 km/h (0 Bft) 97,87 %
26.12.2020 00:46 1,9 C 1,7 C 1,1 C 96 % 1025,8 hPa 0,0 l/m 0 min 0 min 0 W/m 16,1 km/h (3 Bft) 97,87 %
26.12.2020 00:48 1,9 C 1,7 C 1,1 C 96 % 1025,7 hPa 0,0 l/m 0 min 0 min 0 W/m 3,2 km/h (1 Bft) 97,83 %
26.12.2020 00:50 1,9 C 1,7 C 1,1 C 96 % 1025,7 hPa 0,0 l/m 0 min 0 min 0 W/m 3,2 km/h (1 Bft) 97,87 %
26.12.2020 00:52 1,9 C 1,7 C 1,1 C 96 % 1025,7 hPa 0,0 l/m 0 min 0 min 0 W/m 0,0 km/h (0 Bft) 95,74 %
26.12.2020 00:54 1,9 C 1,7 C 1,1 C 96 % 1025,6 hPa 0,0 l/m 0 min 0 min 0 W/m 3,2 km/h (1 Bft) 100,00 %
26.12.2020 00:56 1,9 C 1,7 C 1,1 C 96 % 1025,6 hPa 0,0 l/m 0 min 0 min 0 W/m 3,2 km/h (1 Bft) 100,00 %
26.12.2020 00:58 1,9 C 1,7 C 1,1 C 96 % 1025,6 hPa 0,0 l/m 0 min 0 min 0 W/m 3,2 km/h (1 Bft) 97,83 %
26.12.2020 01:00 1,9 C 1,7 C 1,1 C 96 % 1025,6 hPa 0,0 l/m 0 min 0 min 0 W/m 0,0 km/h (0 Bft) 100,00 %
26.12.2020 01:02 1,9 C 1,7 C 1,1 C 96 % 1025,6 hPa 0,0 l/m 0 min 0 min 0 W/m 9,7 km/h (2 Bft) 100,00 %
26.12.2020 01:04 1,9 C 1,7 C 1,1 C 96 % 1025,5 hPa 0,0 l/m 0 min 0 min 0 W/m 0,0 km/h (0 Bft) 100,00 %
26.12.2020 01:06 1,9 C 1,1 C 1,1 C 96 % 1025,5 hPa 0,0 l/m 0 min 0 min 0 W/m 0,0 km/h (0 Bft) 100,00 %
26.12.2020 01:08 1,9 C 1,7 C 1,1 C 96 % 1025,5 hPa 0,0 l/m 0 min 0 min 0 W/m 0,0 km/h (0 Bft) 97,87 %
26.12.2020 01:10 1,9 C 1,1 C 1,1 C 96 % 1025,5 hPa 0,0 l/m 0 min 0 min 0 W/m 0,0 km/h (0 Bft) 100,00 %
26.12.2020 01:12 1,9 C 1,7 C 1,1 C 96 % 1025,5 hPa 0,0 l/m 0 min 0 min 0 W/m 0,0 km/h (0 Bft) 100,00 %
26.12.2020 01:14 1,9 C 1,7 C 1,1 C 96 % 1025,5 hPa 0,0 l/m 0 min 0 min 0 W/m 0,0 km/h (0 Bft) 97,87 %
26.12.2020 01:16 1,9 C 1,7 C 1,1 C 96 % 1025,6 hPa 0,0 l/m 0 min 0 min 0 W/m 9,7 km/h (2 Bft) 100,00 %
26.12.2020 01:18 1,9 C 1,7 C 1,1 C 96 % 1025,6 hPa 0,0 l/m 0 min 0 min 0 W/m 3,2 km/h (1 Bft) 97,87 %
26.12.2020 01:20 1,9 C 1,7 C 1,1 C 96 % 1025,6 hPa 0,0 l/m 0 min 0 min 0 W/m 0,0 km/h (0 Bft) 100,00 %
26.12.2020 01:22 1,9 C 1,7 C 1,1 C 96 % 1025,6 hPa 0,0 l/m 0 min 0 min 0 W/m 3,2 km/h (1 Bft) 97,83 %
26.12.2020 01:24 1,9 C 1,7 C 1,1 C 96 % 1025,6 hPa 0,0 l/m 0 min 0 min 0 W/m 6,4 km/h (2 Bft) 100,00 %
26.12.2020 01:26 1,9 C 1,7 C 1,1 C 96 % 1025,6 hPa 0,0 l/m 0 min 0 min 0 W/m 0,0 km/h (0 Bft) 100,00 %
26.12.2020 01:28 1,9 C 1,7 C 1,1 C 96 % 1025,6 hPa 0,0 l/m 0 min 0 min 0 W/m 0,0 km/h (0 Bft) 100,00 %
26.12.2020 01:30 1,9 C 1,7 C 1,1 C 96 % 1025,7 hPa 0,0 l/m 0 min 0 min 0 W/m 6,4 km/h (2 Bft) 100,00 %
26.12.2020 01:32 1,9 C 1,1 C 1,1 C 96 % 1025,7 hPa 0,0 l/m 0 min 0 min 0 W/m 0,0 km/h (0 Bft) 100,00 %
26.12.2020 01:34 1,9 C 1,1 C 1,1 C 96 % 1025,7 hPa 0,0 l/m 0 min 0 min 0 W/m 0,0 km/h (0 Bft) 100,00 %
26.12.2020 01:36 1,9 C 1,1 C 1,1 C 96 % 1025,7 hPa 0,0 l/m 0 min 0 min 0 W/m 6,4 km/h (2 Bft) 97,87 %
26.12.2020 01:38 1,9 C 1,1 C 1,1 C 96 % 1025,7 hPa 0,0 l/m 0 min 0 min 0 W/m 3,2 km/h (1 Bft) 100,00 %
26.12.2020 01:40 1,9 C 1,1 C 1,1 C 96 % 1025,7 hPa 0,0 l/m 0 min 0 min 0 W/m 0,0 km/h (0 Bft) 100,00 %
26.12.2020 01:42 1,9 C 1,1 C 1,1 C 96 % 1025,7 hPa 0,0 l/m 0 min 0 min 0 W/m 3,2 km/h (1 Bft) 100,00 %
26.12.2020 01:44 1,9 C 1,1 C 0,5 C 96 % 1025,6 hPa 0,0 l/m 0 min 0 min 0 W/m 0,0 km/h (0 Bft) 100,00 %
26.12.2020 01:46 1,9 C 1,1 C 0,5 C 96 % 1025,7 hPa 0,0 l/m 0 min 0 min 0 W/m 0,0 km/h (0 Bft) 95,74 %
26.12.2020 01:48 1,9 C 1,1 C 0,5 C 96 % 1025,6 hPa 0,0 l/m 0 min 0 min 0 W/m 3,2 km/h (1 Bft) 100,00 %
26.12.2020 01:50 1,8 C 1,1 C 0,5 C 96 % 1025,6 hPa 0,0 l/m 0 min 0 min 0 W/m 0,0 km/h (0 Bft) 97,87 %
26.12.2020 01:52 1,9 C 1,1 C 0,5 C 96 % 1025,6 hPa 0,0 l/m 0 min 0 min 0 W/m 0,0 km/h (0 Bft) 95,74 %
26.12.2020 01:54 1,9 C 1,1 C 0,5 C 96 % 1025,7 hPa 0,0 l/m 0 min 0 min 0 W/m 0,0 km/h (0 Bft) 97,87 %
26.12.2020 01:56 1,8 C 1,1 C 0,5 C 96 % 1025,7 hPa 0,0 l/m 0 min 0 min 0 W/m 0,0 km/h (0 Bft) 97,83 %
26.12.2020 01:58 1,8 C 1,1 C 0,5 C 96 % 1025,6 hPa 0,0 l/m 0 min 0 min 0 W/m 0,0 km/h (0 Bft) 100,00 %
26.12.2020 02:00 1,8 C 1,1 C 0,5 C 96 % 1025,6 hPa 0,0 l/m 0 min 0 min 0 W/m 0,0 km/h (0 Bft) 95,74 %
26.12.2020 02:02 1,8 C 1,1 C 0,5 C 96 % 1025,7 hPa 0,0 l/m 0 min 0 min 0 W/m 0,0 km/h (0 Bft) 95,74 %
26.12.2020 02:04 1,8 C 1,1 C 0,5 C 96 % 1025,6 hPa 0,0 l/m 0 min 0 min 0 W/m 0,0 km/h (0 Bft) 97,87 %
26.12.2020 02:06 1,8 C 1,1 C 0,5 C 96 % 1025,6 hPa 0,0 l/m 0 min 0 min 0 W/m 0,0 km/h (0 Bft) 100,00 %
26.12.2020 02:08 1,8 C 1,1 C 0,5 C 96 % 1025,6 hPa 0,0 l/m 0 min 0 min 0 W/m 0,0 km/h (0 Bft) 100,00 %
26.12.2020 02:10 1,8 C 1,1 C 0,5 C 96 % 1025,6 hPa 0,0 l/m 0 min 0 min 0 W/m 0,0 km/h (0 Bft) 97,87 %
26.12.2020 02:12 1,8 C 1,1 C 0,5 C 96 % 1025,7 hPa 0,0 l/m 0 min 0 min 0 W/m 0,0 km/h (0 Bft) 97,87 %
26.12.2020 02:14 1,8 C 1,1 C 1,1 C 96 % 1025,7 hPa 0,0 l/m 0 min 0 min 0 W/m 6,4 km/h (2 Bft) 93,62 %
26.12.2020 02:16 1,8 C 1,1 C 0,5 C 96 % 1025,7 hPa 0,0 l/m 0 min 0 min 0 W/m 0,0 km/h (0 Bft) 91,49 %
26.12.2020 02:18 1,8 C 1,1 C 1,1 C 96 % 1025,6 hPa 0,0 l/m 0 min 0 min 0 W/m 0,0 km/h (0 Bft) 95,65 %
26.12.2020 02:20 1,8 C 1,1 C 1,1 C 96 % 1025,6 hPa 0,0 l/m 0 min 0 min 0 W/m 0,0 km/h (0 Bft) 95,74 %
26.12.2020 02:22 1,8 C 1,1 C 0,5 C 96 % 1025,7 hPa 0,0 l/m 0 min 0 min 0 W/m 3,2 km/h (1 Bft) 95,74 %
26.12.2020 02:24 1,8 C 1,1 C 0,5 C 96 % 1025,7 hPa 0,0 l/m 0 min 0 min 0 W/m 3,2 km/h (1 Bft) 95,74 %
26.12.2020 02:26 1,8 C 1,1 C 0,5 C 96 % 1025,7 hPa 0,0 l/m 0 min 0 min 0 W/m 0,0 km/h (0 Bft) 95,74 %
26.12.2020 02:28 1,8 C 1,1 C 0,5 C 96 % 1025,7 hPa 0,0 l/m 0 min 0 min 0 W/m 0,0 km/h (0 Bft) 93,62 %
26.12.2020 02:30 1,8 C 1,1 C 0,5 C 96 % 1025,7 hPa 0,0 l/m 0 min 0 min 0 W/m 6,4 km/h (2 Bft) 95,65 %
26.12.2020 02:32 1,8 C 1,1 C 0,5 C 96 % 1025,7 hPa 0,0 l/m 0 min 0 min 0 W/m 3,2 km/h (1 Bft) 95,83 %
26.12.2020 02:34 1,8 C 1,1 C 0,5 C 96 % 1025,7 hPa 0,0 l/m 0 min 0 min 0 W/m 3,2 km/h (1 Bft) 93,62 %
26.12.2020 02:36 1,8 C 1,1 C 0,5 C 96 % 1025,7 hPa 0,0 l/m 0 min 0 min 0 W/m 3,2 km/h (1 Bft) 95,74 %
26.12.2020 02:38 1,7 C 1,1 C 0,5 C 96 % 1025,7 hPa 0,0 l/m 0 min 0 min 0 W/m 0,0 km/h (0 Bft) 95,74 %
26.12.2020 02:40 1,7 C 1,1 C 0,5 C 96 % 1025,6 hPa 0,0 l/m 0 min 0 min 0 W/m 0,0 km/h (0 Bft) 95,74 %
26.12.2020 02:42 1,7 C 1,1 C 0,5 C 96 % 1025,6 hPa 0,0 l/m 0 min 0 min 0 W/m 0,0 km/h (0 Bft) 95,65 %
26.12.2020 02:44 1,7 C 1,1 C 0,5 C 96 % 1025,6 hPa 0,0 l/m 0 min 0 min 0 W/m 0,0 km/h (0 Bft) 93,62 %
26.12.2020 02:46 1,7 C 1,1 C 0,5 C 96 % 1025,6 hPa 0,0 l/m 0 min 0 min 0 W/m 0,0 km/h (0 Bft) 96,00 %
26.12.2020 02:48 1,7 C 1,1 C 0,5 C 96 % 1025,7 hPa 0,0 l/m 0 min 0 min 0 W/m 0,0 km/h (0 Bft) 95,74 %
26.12.2020 02:50 1,7 C 1,1 C 0,5 C 96 % 1025,8 hPa 0,0 l/m 0 min 0 min 0 W/m 0,0 km/h (0 Bft) 93,62 %
26.12.2020 02:52 1,6 C 1,1 C 0,5 C 96 % 1025,7 hPa 0,0 l/m 0 min 0 min 0 W/m 0,0 km/h (0 Bft) 95,74 %
26.12.2020 02:54 1,7 C 1,1 C 0,5 C 96 % 1025,8 hPa 0,0 l/m 0 min 0 min 0 W/m 0,0 km/h (0 Bft) 95,65 %
26.12.2020 02:56 1,7 C 1,1 C 0,5 C 96 % 1025,7 hPa 0,0 l/m 0 min 0 min 0 W/m 0,0 km/h (0 Bft) 97,87 %
26.12.2020 02:58 1,7 C 1,1 C 0,5 C 96 % 1025,7 hPa 0,0 l/m 0 min 0 min 0 W/m 0,0 km/h (0 Bft) 97,87 %
26.12.2020 03:00 1,7 C 1,1 C 0,5 C 96 % 1025,8 hPa 0,0 l/m 0 min 0 min 0 W/m 0,0 km/h (0 Bft) 97,87 %
26.12.2020 03:02 1,7 C 1,1 C 0,5 C 96 % 1025,8 hPa 0,0 l/m 0 min 0 min 0 W/m 0,0 km/h (0 Bft) 100,00 %
26.12.2020 03:04 1,7 C 1,1 C 0,5 C 96 % 1025,8 hPa 0,0 l/m 0 min 0 min 0 W/m 0,0 km/h (0 Bft) 100,00 %
26.12.2020 03:06 1,7 C 1,1 C 0,5 C 96 % 1025,8 hPa 0,0 l/m 0 min 0 min 0 W/m 0,0 km/h (0 Bft) 100,00 %
26.12.2020 03:08 1,7 C 1,1 C 0,5 C 96 % 1025,8 hPa 0,0 l/m 0 min 0 min 0 W/m 0,0 km/h (0 Bft) 100,00 %
26.12.2020 03:10 1,7 C 1,1 C 1,1 C 96 % 1025,8 hPa 0,0 l/m 0 min 0 min 0 W/m 0,0 km/h (0 Bft) 100,00 %
26.12.2020 03:12 1,7 C 1,1 C 1,1 C 97 % 1025,8 hPa 0,0 l/m 0 min 0 min 0 W/m 6,4 km/h (2 Bft) 100,00 %
26.12.2020 03:14 1,7 C 1,1 C 1,1 C 97 % 1025,7 hPa 0,0 l/m 0 min 0 min 0 W/m 9,7 km/h (2 Bft) 100,00 %
26.12.2020 03:16 1,7 C 1,1 C 1,1 C 97 % 1025,7 hPa 0,0 l/m 0 min 0 min 0 W/m 6,4 km/h (2 Bft) 95,74 %
26.12.2020 03:18 1,8 C 1,1 C 1,1 C 97 % 1025,7 hPa 0,0 l/m 0 min 0 min 0 W/m 3,2 km/h (1 Bft) 100,00 %
26.12.2020 03:20 1,8 C 1,1 C 1,1 C 97 % 1025,7 hPa 0,0 l/m 0 min 0 min 0 W/m 12,9 km/h (3 Bft) 100,00 %
26.12.2020 03:22 1,8 C 1,1 C 1,1 C 97 % 1025,7 hPa 0,0 l/m 0 min 0 min 0 W/m 3,2 km/h (1 Bft) 100,00 %
26.12.2020 03:24 1,8 C 1,1 C 1,1 C 97 % 1025,6 hPa 0,0 l/m 0 min 0 min 0 W/m 9,7 km/h (2 Bft) 57,45 %
26.12.2020 03:26 1,8 C 1,1 C 1,1 C 97 % 1025,7 hPa 0,0 l/m 0 min 0 min 0 W/m 6,4 km/h (2 Bft) 100,00 %
26.12.2020 03:28 1,8 C 1,1 C 1,1 C 97 % 1025,7 hPa 0,0 l/m 0 min 0 min 0 W/m 0,0 km/h (0 Bft) 100,00 %
26.12.2020 03:30 1,8 C 1,1 C 1,1 C 97 % 1025,6 hPa 0,0 l/m 0 min 0 min 0 W/m 6,4 km/h (2 Bft) 100,00 %
26.12.2020 03:32 1,8 C 1,7 C 1,1 C 97 % 1025,6 hPa 0,0 l/m 0 min 0 min 0 W/m 6,4 km/h (2 Bft) 100,00 %
26.12.2020 03:34 1,8 C 1,7 C 1,1 C 97 % 1025,6 hPa 0,0 l/m 0 min 0 min 0 W/m 9,7 km/h (2 Bft) 97,87 %
26.12.2020 03:36 1,8 C 1,7 C 1,1 C 97 % 1025,6 hPa 0,0 l/m 0 min 0 min 0 W/m 0,0 km/h (0 Bft) 95,45 %
26.12.2020 03:38 1,8 C 1,7 C 1,1 C 97 % 1025,6 hPa 0,0 l/m 0 min 0 min 0 W/m 6,4 km/h (2 Bft) 100,00 %
26.12.2020 03:40 1,8 C 1,7 C 1,1 C 97 % 1025,6 hPa 0,0 l/m 0 min 0 min 0 W/m 0,0 km/h (0 Bft) 100,00 %
26.12.2020 03:42 1,8 C 1,7 C 1,1 C 97 % 1025,5 hPa 0,0 l/m 0 min 0 min 0 W/m 3,2 km/h (1 Bft) 97,87 %
26.12.2020 03:44 1,8 C 1,7 C 1,1 C 97 % 1025,5 hPa 0,0 l/m 0 min 0 min 0 W/m 3,2 km/h (1 Bft) 100,00 %
26.12.2020 03:46 1,8 C 1,7 C 1,1 C 97 % 1025,6 hPa 0,0 l/m 0 min 0 min 0 W/m 0,0 km/h (0 Bft) 100,00 %
26.12.2020 03:48 1,8 C 1,7 C 1,1 C 97 % 1025,5 hPa 0,0 l/m 0 min 0 min 0 W/m 0,0 km/h (0 Bft) 97,73 %
26.12.2020 03:50 1,9 C 1,7 C 1,1 C 97 % 1025,5 hPa 0,0 l/m 0 min 0 min 0 W/m 0,0 km/h (0 Bft) 100,00 %
26.12.2020 03:52 1,9 C 1,7 C 1,1 C 97 % 1025,5 hPa 0,0 l/m 0 min 0 min 0 W/m 0,0 km/h (0 Bft) 100,00 %
26.12.2020 03:54 1,9 C 1,7 C 1,1 C 97 % 1025,5 hPa 0,0 l/m 0 min 0 min 0 W/m 0,0 km/h (0 Bft) 100,00 %
26.12.2020 03:56 1,9 C 1,7 C 1,1 C 97 % 1025,5 hPa 0,0 l/m 0 min 0 min 0 W/m 0,0 km/h (0 Bft) 100,00 %
26.12.2020 03:58 1,9 C 1,7 C 1,1 C 97 % 1025,4 hPa 0,0 l/m 0 min 0 min 0 W/m 0,0 km/h (0 Bft) 100,00 %
26.12.2020 04:00 1,9 C 1,7 C 1,1 C 97 % 1025,4 hPa 0,0 l/m 0 min 0 min 0 W/m 0,0 km/h (0 Bft) 100,00 %
26.12.2020 04:02 1,9 C 1,7 C 1,1 C 97 % 1025,4 hPa 0,0 l/m 0 min 0 min 0 W/m 6,4 km/h (2 Bft) 95,45 %
26.12.2020 04:04 1,9 C 1,7 C 1,1 C 97 % 1025,4 hPa 0,0 l/m 0 min 0 min 0 W/m 0,0 km/h (0 Bft) 100,00 %
26.12.2020 04:06 1,9 C 1,7 C 1,1 C 97 % 1025,4 hPa 0,0 l/m 0 min 0 min 0 W/m 0,0 km/h (0 Bft) 95,74 %
26.12.2020 04:08 1,9 C 1,7 C 1,1 C 97 % 1025,4 hPa 0,0 l/m 0 min 0 min 0 W/m 0,0 km/h (0 Bft) 100,00 %
26.12.2020 04:10 1,9 C 1,7 C 1,1 C 97 % 1025,4 hPa 0,0 l/m 0 min 0 min 0 W/m 0,0 km/h (0 Bft) 97,87 %
26.12.2020 04:12 1,9 C 1,7 C 1,1 C 97 % 1025,3 hPa 0,0 l/m 0 min 0 min 0 W/m 0,0 km/h (0 Bft) 97,87 %
26.12.2020 04:14 1,9 C 1,7 C 1,1 C 97 % 1025,4 hPa 0,0 l/m 0 min 0 min 0 W/m 0,0 km/h (0 Bft) 100,00 %
26.12.2020 04:16 1,9 C 1,7 C 1,1 C 97 % 1025,4 hPa 0,0 l/m 0 min 0 min 0 W/m 0,0 km/h (0 Bft) 59,57 %
26.12.2020 04:18 1,9 C 1,7 C 1,1 C 97 % 1025,4 hPa 0,0 l/m 0 min 0 min 0 W/m 0,0 km/h (0 Bft) 97,30 %
26.12.2020 04:20 1,9 C 1,7 C 1,1 C 97 % 1025,3 hPa 0,0 l/m 0 min 0 min 0 W/m 0,0 km/h (0 Bft) 100,00 %
26.12.2020 04:22 1,9 C 1,7 C 1,1 C 97 % 1025,3 hPa 0,0 l/m 0 min 0 min 0 W/m 3,2 km/h (1 Bft) 100,00 %
26.12.2020 04:24 1,9 C 1,7 C 1,1 C 97 % 1025,3 hPa 0,0 l/m 0 min 0 min 0 W/m 3,2 km/h (1 Bft) 100,00 %
26.12.2020 04:26 1,9 C 1,7 C 1,1 C 97 % 1025,3 hPa 0,0 l/m 0 min 0 min 0 W/m 6,4 km/h (2 Bft) 100,00 %
26.12.2020 04:28 1,9 C 1,7 C 1,1 C 97 % 1025,3 hPa 0,0 l/m 0 min 0 min 0 W/m 6,4 km/h (2 Bft) 100,00 %
26.12.2020 04:30 1,9 C 1,7 C 1,1 C 97 % 1025,3 hPa 0,0 l/m 0 min 0 min 0 W/m 0,0 km/h (0 Bft) 100,00 %
26.12.2020 04:32 1,9 C 1,7 C 1,1 C 97 % 1025,4 hPa 0,0 l/m 0 min 0 min 0 W/m 0,0 km/h (0 Bft) 100,00 %
26.12.2020 04:34 1,9 C 1,7 C 1,1 C 97 % 1025,3 hPa 0,0 l/m 0 min 0 min 0 W/m 0,0 km/h (0 Bft) 100,00 %
26.12.2020 04:36 1,9 C 1,7 C 1,1 C 97 % 1025,2 hPa 0,0 l/m 0 min 0 min 0 W/m 0,0 km/h (0 Bft) 100,00 %
26.12.2020 04:38 1,9 C 1,7 C 1,1 C 97 % 1025,3 hPa 0,0 l/m 0 min 0 min 0 W/m 0,0 km/h (0 Bft) 97,83 %
26.12.2020 04:40 1,9 C 1,7 C 1,1 C 97 % 1025,3 hPa 0,0 l/m 0 min 0 min 0 W/m 6,4 km/h (2 Bft) 95,74 %
26.12.2020 04:42 1,9 C 1,7 C 1,1 C 97 % 1025,2 hPa 0,0 l/m 0 min 0 min 0 W/m 3,2 km/h (1 Bft) 100,00 %
26.12.2020 04:44 1,9 C 1,7 C 1,1 C 97 % 1025,2 hPa 0,0 l/m 0 min 0 min 0 W/m 0,0 km/h (0 Bft) 100,00 %
26.12.2020 04:46 2,0 C 1,7 C 1,1 C 97 % 1025,2 hPa 0,0 l/m 0 min 0 min 0 W/m 9,7 km/h (2 Bft) 100,00 %
26.12.2020 04:48 2,0 C 1,7 C 1,1 C 97 % 1025,2 hPa 0,0 l/m 0 min 0 min 0 W/m 0,0 km/h (0 Bft) 97,87 %
26.12.2020 04:50 2,0 C 1,7 C 1,1 C 97 % 1025,2 hPa 0,0 l/m 0 min 0 min 0 W/m 0,0 km/h (0 Bft) 97,56 %
26.12.2020 04:52 2,0 C 1,7 C 1,1 C 97 % 1025,2 hPa 0,0 l/m 0 min 0 min 0 W/m 0,0 km/h (0 Bft) 97,87 %
26.12.2020 04:54 2,0 C 1,7 C 1,1 C 97 % 1025,2 hPa 0,0 l/m 0 min 0 min 0 W/m 0,0 km/h (0 Bft) 97,87 %
26.12.2020 04:56 2,0 C 1,7 C 1,1 C 97 % 1025,2 hPa 0,0 l/m 0 min 0 min 0 W/m 3,2 km/h (1 Bft) 97,87 %
26.12.2020 04:58 2,0 C 1,7 C 1,1 C 97 % 1025,2 hPa 0,0 l/m 0 min 0 min 0 W/m 0,0 km/h (0 Bft) 97,87 %
26.12.2020 05:00 2,1 C 1,7 C 1,1 C 97 % 1025,2 hPa 0,0 l/m 0 min 0 min 0 W/m 0,0 km/h (0 Bft) 95,74 %
26.12.2020 05:02 2,1 C 1,7 C 1,1 C 97 % 1025,2 hPa 0,0 l/m 0 min 0 min 0 W/m 0,0 km/h (0 Bft) 95,74 %
26.12.2020 05:04 2,1 C 1,7 C 1,1 C 97 % 1025,2 hPa 0,0 l/m 0 min 0 min 0 W/m 0,0 km/h (0 Bft) 97,87 %
26.12.2020 05:06 2,1 C 1,7 C 1,1 C 97 % 1025,1 hPa 0,0 l/m 0 min 0 min 0 W/m 0,0 km/h (0 Bft) 95,74 %
26.12.2020 05:08 2,1 C 1,7 C 1,1 C 97 % 1025,1 hPa 0,0 l/m 0 min 0 min 0 W/m 9,7 km/h (2 Bft) 93,75 %
26.12.2020 05:10 2,1 C 1,7 C 1,1 C 97 % 1025,1 hPa 0,0 l/m 0 min 0 min 0 W/m 9,7 km/h (2 Bft) 91,49 %
26.12.2020 05:12 2,2 C 1,7 C 1,1 C 97 % 1025,0 hPa 0,0 l/m 0 min 0 min 0 W/m 9,7 km/h (2 Bft) 95,65 %
26.12.2020 05:14 2,2 C 1,7 C 1,1 C 97 % 1025,0 hPa 0,0 l/m 0 min 0 min 0 W/m 0,0 km/h (0 Bft) 95,74 %
26.12.2020 05:16 2,2 C 1,7 C 1,1 C 97 % 1025,0 hPa 0,0 l/m 0 min 0 min 0 W/m 0,0 km/h (0 Bft) 93,62 %
26.12.2020 05:18 2,2 C 2,2 C 1,1 C 97 % 1025,0 hPa 0,0 l/m 0 min 0 min 0 W/m 3,2 km/h (1 Bft) 95,74 %
26.12.2020 05:20 2,3 C 2,2 C 1,6 C 97 % 1025,0 hPa 0,0 l/m 0 min 0 min 0 W/m 12,9 km/h (3 Bft) 95,74 %
26.12.2020 05:22 2,3 C 2,2 C 1,6 C 97 % 1024,9 hPa 0,0 l/m 0 min 0 min 0 W/m 3,2 km/h (1 Bft) 95,74 %
26.12.2020 05:24 2,3 C 2,2 C 1,6 C 97 % 1024,9 hPa 0,0 l/m 0 min 0 min 0 W/m 0,0 km/h (0 Bft) 95,65 %
26.12.2020 05:26 2,3 C 2,2 C 1,6 C 97 % 1024,9 hPa 0,0 l/m 0 min 0 min 0 W/m 0,0 km/h (0 Bft) 93,62 %
26.12.2020 05:28 2,3 C 2,2 C 1,6 C 97 % 1024,9 hPa 0,0 l/m 0 min 0 min 0 W/m 0,0 km/h (0 Bft) 95,74 %
26.12.2020 05:30 2,3 C 2,2 C 1,6 C 97 % 1024,8 hPa 0,0 l/m 0 min 0 min 0 W/m 0,0 km/h (0 Bft) 93,62 %
26.12.2020 05:32 2,3 C 2,2 C 1,6 C 97 % 1024,8 hPa 0,0 l/m 0 min 0 min 0 W/m 3,2 km/h (1 Bft) 93,62 %
26.12.2020 05:34 2,4 C 2,2 C 1,6 C 97 % 1024,8 hPa 0,0 l/m 0 min 0 min 0 W/m 0,0 km/h (0 Bft) 91,49 %
26.12.2020 05:36 2,4 C 2,2 C 1,6 C 97 % 1024,8 hPa 0,0 l/m 0 min 0 min 0 W/m 0,0 km/h (0 Bft) 97,83 %
26.12.2020 05:38 2,4 C 2,2 C 1,6 C 97 % 1024,7 hPa 0,0 l/m 0 min 0 min 0 W/m 0,0 km/h (0 Bft) 97,87 %
26.12.2020 05:40 2,4 C 1,7 C 1,6 C 97 % 1024,6 hPa 0,0 l/m 0 min 0 min 0 W/m 0,0 km/h (0 Bft) 97,87 %
26.12.2020 05:42 2,4 C 1,7 C 1,6 C 97 % 1024,7 hPa 0,0 l/m 0 min 0 min 0 W/m 0,0 km/h (0 Bft) 93,62 %
26.12.2020 05:44 2,4 C 1,7 C 1,1 C 97 % 1024,6 hPa 0,0 l/m 0 min 0 min 0 W/m 0,0 km/h (0 Bft) 95,74 %
26.12.2020 05:46 2,4 C 1,7 C 1,1 C 97 % 1024,6 hPa 0,0 l/m 0 min 0 min 0 W/m 0,0 km/h (0 Bft) 97,83 %
26.12.2020 05:48 2,4 C 1,7 C 1,1 C 97 % 1024,6 hPa 0,0 l/m 0 min 0 min 0 W/m 0,0 km/h (0 Bft) 97,87 %
26.12.2020 05:50 2,4 C 1,7 C 1,1 C 97 % 1024,6 hPa 0,0 l/m 0 min 0 min 0 W/m 0,0 km/h (0 Bft) 97,87 %
26.12.2020 05:52 2,4 C 1,7 C 1,1 C 97 % 1024,6 hPa 0,0 l/m 0 min 0 min 0 W/m 3,2 km/h (1 Bft) 100,00 %
26.12.2020 05:54 2,4 C 1,7 C 1,1 C 97 % 1024,5 hPa 0,0 l/m 0 min 0 min 0 W/m 0,0 km/h (0 Bft) 100,00 %
26.12.2020 05:56 2,4 C 1,7 C 1,1 C 97 % 1024,4 hPa 0,0 l/m 0 min 0 min 0 W/m 3,2 km/h (1 Bft) 100,00 %
26.12.2020 05:58 2,4 C 1,7 C 1,1 C 97 % 1024,4 hPa 0,0 l/m 0 min 0 min 0 W/m 0,0 km/h (0 Bft) 100,00 %
26.12.2020 06:00 2,5 C 1,7 C 1,1 C 97 % 1024,3 hPa 0,0 l/m 0 min 0 min 0 W/m 0,0 km/h (0 Bft) 93,62 %
26.12.2020 06:02 2,5 C 1,7 C 1,1 C 97 % 1024,3 hPa 0,0 l/m 0 min 0 min 0 W/m 0,0 km/h (0 Bft) 100,00 %
26.12.2020 06:04 2,5 C 1,7 C 1,1 C 97 % 1024,3 hPa 0,0 l/m 0 min 0 min 0 W/m 6,4 km/h (2 Bft) 100,00 %
26.12.2020 06:08 2,5 C 1,7 C 1,1 C 97 % 1024,3 hPa 0,0 l/m 0 min 0 min 0 W/m 0,0 km/h (0 Bft) 98,95 %
26.12.2020 06:10 2,5 C 1,7 C 1,1 C 97 % 1024,3 hPa 0,0 l/m 0 min 0 min 0 W/m 0,0 km/h (0 Bft) 97,83 %
26.12.2020 06:12 2,4 C 1,7 C 1,1 C 97 % 1024,3 hPa 0,0 l/m 0 min 0 min 0 W/m 0,0 km/h (0 Bft) 100,00 %
26.12.2020 06:14 2,4 C 1,7 C 1,1 C 97 % 1024,2 hPa 0,0 l/m 0 min 0 min 0 W/m 12,9 km/h (3 Bft) 100,00 %
26.12.2020 06:16 2,4 C 1,7 C 1,1 C 97 % 1024,2 hPa 0,0 l/m 0 min 0 min 0 W/m 6,4 km/h (2 Bft) 100,00 %
26.12.2020 06:18 2,4 C 1,7 C 1,1 C 97 % 1024,2 hPa 0,0 l/m 0 min 0 min 0 W/m 3,2 km/h (1 Bft) 97,87 %
26.12.2020 06:20 2,4 C 1,7 C 1,1 C 97 % 1024,2 hPa 0,0 l/m 0 min 0 min 0 W/m 0,0 km/h (0 Bft) 97,87 %
26.12.2020 06:22 2,4 C 1,7 C 1,1 C 97 % 1024,2 hPa 0,0 l/m 0 min 0 min 0 W/m 0,0 km/h (0 Bft) 100,00 %
26.12.2020 06:24 2,4 C 1,7 C 1,1 C 97 % 1024,2 hPa 0,0 l/m 0 min 0 min 0 W/m 3,2 km/h (1 Bft) 100,00 %
26.12.2020 06:26 2,3 C 1,7 C 1,1 C 97 % 1024,2 hPa 0,0 l/m 0 min 0 min 0 W/m 0,0 km/h (0 Bft) 95,74 %
26.12.2020 06:28 2,3 C 1,7 C 1,1 C 97 % 1024,2 hPa 0,0 l/m 0 min 0 min 0 W/m 0,0 km/h (0 Bft) 97,87 %
26.12.2020 06:30 2,3 C 1,7 C 1,1 C 97 % 1024,2 hPa 0,0 l/m 0 min 0 min 0 W/m 0,0 km/h (0 Bft) 100,00 %
26.12.2020 06:32 2,3 C 1,7 C 1,1 C 97 % 1024,2 hPa 0,0 l/m 0 min 0 min 0 W/m 0,0 km/h (0 Bft) 97,92 %
26.12.2020 06:34 2,2 C 1,7 C 1,1 C 97 % 1024,2 hPa 0,0 l/m 0 min 0 min 0 W/m 0,0 km/h (0 Bft) 100,00 %
26.12.2020 06:36 2,2 C 1,7 C 1,1 C 97 % 1024,2 hPa 0,0 l/m 0 min 0 min 0 W/m 0,0 km/h (0 Bft) 97,87 %
26.12.2020 06:38 2,2 C 1,7 C 1,1 C 97 % 1024,2 hPa 0,0 l/m 0 min 0 min 0 W/m 0,0 km/h (0 Bft) 97,87 %
26.12.2020 06:40 2,2 C 1,7 C 1,1 C 97 % 1024,2 hPa 0,0 l/m 0 min 0 min 0 W/m 0,0 km/h (0 Bft) 100,00 %
26.12.2020 06:42 2,1 C 1,7 C 1,1 C 97 % 1024,2 hPa 0,0 l/m 0 min 0 min 0 W/m 0,0 km/h (0 Bft) 97,87 %
26.12.2020 06:44 2,1 C 1,7 C 1,1 C 97 % 1024,2 hPa 0,0 l/m 0 min 0 min 0 W/m 3,2 km/h (1 Bft) 100,00 %
26.12.2020 06:46 2,1 C 1,7 C 1,1 C 97 % 1024,2 hPa 0,0 l/m 0 min 0 min 0 W/m 3,2 km/h (1 Bft) 100,00 %
26.12.2020 06:48 2,1 C 1,7 C 1,1 C 97 % 1024,2 hPa 0,0 l/m 0 min 0 min 0 W/m 6,4 km/h (2 Bft) 100,00 %
26.12.2020 06:50 2,1 C 1,7 C 1,1 C 97 % 1024,1 hPa 0,0 l/m 0 min 0 min 0 W/m 0,0 km/h (0 Bft) 100,00 %
26.12.2020 06:52 2,1 C 1,7 C 1,1 C 97 % 1024,1 hPa 0,0 l/m 0 min 0 min 0 W/m 0,0 km/h (0 Bft) 100,00 %
26.12.2020 06:54 2,1 C 1,7 C 1,1 C 97 % 1024,1 hPa 0,0 l/m 0 min 0 min 0 W/m 3,2 km/h (1 Bft) 100,00 %
26.12.2020 06:56 2,1 C 1,7 C 1,1 C 97 % 1024,0 hPa 0,0 l/m 0 min 0 min 0 W/m 3,2 km/h (1 Bft) 100,00 %
26.12.2020 06:58 2,1 C 1,1 C 0,5 C 97 % 1024,0 hPa 0,0 l/m 0 min 0 min 0 W/m 0,0 km/h (0 Bft) 100,00 %
26.12.2020 07:00 2,1 C 1,1 C 0,5 C 97 % 1024,0 hPa 0,0 l/m 0 min 0 min 0 W/m 0,0 km/h (0 Bft) 97,87 %
26.12.2020 07:02 2,0 C 1,1 C 0,5 C 97 % 1024,0 hPa 0,0 l/m 0 min 0 min 0 W/m 0,0 km/h (0 Bft) 100,00 %
26.12.2020 07:04 2,0 C 1,1 C 0,5 C 97 % 1024,0 hPa 0,0 l/m 0 min 0 min 0 W/m 0,0 km/h (0 Bft) 100,00 %
26.12.2020 07:06 2,0 C 1,1 C 0,5 C 97 % 1024,0 hPa 0,0 l/m 0 min 0 min 0 W/m 3,2 km/h (1 Bft) 100,00 %
26.12.2020 07:08 2,0 C 1,1 C 0,5 C 97 % 1024,0 hPa 0,0 l/m 0 min 0 min 0 W/m 0,0 km/h (0 Bft) 100,00 %
26.12.2020 07:10 2,0 C 1,1 C 0,5 C 97 % 1024,0 hPa 0,0 l/m 0 min 0 min 0 W/m 0,0 km/h (0 Bft) 100,00 %
26.12.2020 07:12 2,0 C 1,1 C 0,5 C 97 % 1024,0 hPa 0,0 l/m 0 min 0 min 0 W/m 0,0 km/h (0 Bft) 100,00 %
26.12.2020 07:14 2,0 C 1,1 C 0,5 C 97 % 1023,9 hPa 0,0 l/m 0 min 0 min 0 W/m 0,0 km/h (0 Bft) 93,62 %
26.12.2020 07:16 2,0 C 1,1 C 0,5 C 97 % 1023,9 hPa 0,0 l/m 0 min 0 min 0 W/m 0,0 km/h (0 Bft) 97,87 %
26.12.2020 07:18 1,9 C 1,1 C 0,5 C 97 % 1024,0 hPa 0,0 l/m 0 min 0 min 0 W/m 0,0 km/h (0 Bft) 100,00 %
26.12.2020 07:20 1,9 C 1,1 C 0,5 C 97 % 1024,0 hPa 0,0 l/m 0 min 0 min 0 W/m 0,0 km/h (0 Bft) 97,83 %
26.12.2020 07:22 1,9 C 1,1 C 0,5 C 97 % 1024,0 hPa 0,0 l/m 0 min 0 min 0 W/m 0,0 km/h (0 Bft) 97,87 %
26.12.2020 07:24 1,9 C 1,1 C 0,5 C 97 % 1024,1 hPa 0,0 l/m 0 min 0 min 0 W/m 0,0 km/h (0 Bft) 97,87 %
26.12.2020 07:26 1,9 C 1,1 C 0,5 C 97 % 1024,0 hPa 0,0 l/m 0 min 0 min 0 W/m 0,0 km/h (0 Bft) 100,00 %
26.12.2020 07:28 1,9 C 1,1 C 0,5 C 97 % 1024,0 hPa 0,0 l/m 0 min 0 min 0 W/m 0,0 km/h (0 Bft) 100,00 %
26.12.2020 07:30 1,9 C 1,1 C 0,5 C 97 % 1024,1 hPa 0,0 l/m 0 min 0 min 0 W/m 3,2 km/h (1 Bft) 95,74 %
26.12.2020 07:32 1,9 C 1,1 C 0,5 C 97 % 1024,1 hPa 0,0 l/m 0 min 0 min 0 W/m 3,2 km/h (1 Bft) 95,65 %
26.12.2020 07:34 1,9 C 1,1 C 0,5 C 97 % 1024,1 hPa 0,0 l/m 0 min 0 min 0 W/m 3,2 km/h (1 Bft) 97,87 %
26.12.2020 07:36 1,8 C 1,1 C 0,5 C 97 % 1024,1 hPa 0,0 l/m 0 min 0 min 0 W/m 0,0 km/h (0 Bft) 97,87 %
26.12.2020 07:38 1,8 C 1,1 C 0,5 C 97 % 1024,1 hPa 0,0 l/m 0 min 0 min 0 W/m 0,0 km/h (0 Bft) 97,87 %
26.12.2020 07:40 1,8 C 1,1 C 0,5 C 97 % 1024,1 hPa 0,0 l/m 0 min 0 min 0 W/m 6,4 km/h (2 Bft) 97,87 %
26.12.2020 07:42 1,8 C 1,1 C 0,5 C 97 % 1024,1 hPa 0,0 l/m 0 min 0 min 0 W/m 6,4 km/h (2 Bft) 93,62 %
26.12.2020 07:44 1,8 C 1,1 C 0,5 C 97 % 1024,1 hPa 0,0 l/m 0 min 0 min 0 W/m 6,4 km/h (2 Bft) 95,65 %
26.12.2020 07:46 1,8 C 1,1 C 0,5 C 97 % 1024,1 hPa 0,0 l/m 0 min 0 min 0 W/m 16,1 km/h (3 Bft) 97,87 %
26.12.2020 07:48 1,8 C 1,1 C 0,5 C 97 % 1024,1 hPa 0,0 l/m 0 min 0 min 0 W/m 0,0 km/h (0 Bft) 97,87 %
26.12.2020 07:50 1,8 C 1,1 C 0,5 C 97 % 1024,1 hPa 0,0 l/m 0 min 0 min 0 W/m 0,0 km/h (0 Bft) 97,87 %
26.12.2020 07:52 1,8 C 1,1 C 0,5 C 97 % 1024,1 hPa 0,0 l/m 0 min 0 min 0 W/m 0,0 km/h (0 Bft) 97,87 %
26.12.2020 07:54 1,8 C 1,1 C 0,5 C 97 % 1024,1 hPa 0,0 l/m 0 min 0 min 0 W/m 0,0 km/h (0 Bft) 97,87 %
26.12.2020 07:56 1,8 C 1,1 C 0,5 C 97 % 1024,2 hPa 0,0 l/m 0 min 0 min 0 W/m 6,4 km/h (2 Bft) 97,56 %
26.12.2020 07:58 1,8 C 1,1 C 0,5 C 97 % 1024,2 hPa 0,0 l/m 0 min 0 min 0 W/m 12,9 km/h (3 Bft) 97,87 %
26.12.2020 08:00 1,8 C 1,1 C 0,5 C 97 % 1024,2 hPa 0,0 l/m 0 min 0 min 0 W/m 0,0 km/h (0 Bft) 95,74 %
26.12.2020 08:02 1,8 C 1,1 C 0,5 C 97 % 1024,3 hPa 0,0 l/m 0 min 0 min 0 W/m 0,0 km/h (0 Bft) 95,74 %
26.12.2020 08:04 1,8 C 1,1 C 0,5 C 97 % 1024,3 hPa 0,0 l/m 0 min 0 min 0 W/m 3,2 km/h (1 Bft) 93,62 %
26.12.2020 08:06 1,8 C 1,1 C 0,5 C 97 % 1024,2 hPa 0,0 l/m 0 min 0 min 0 W/m 3,2 km/h (1 Bft) 95,65 %
26.12.2020 08:08 1,8 C 1,1 C 0,5 C 97 % 1024,3 hPa 0,0 l/m 0 min 0 min 0 W/m 0,0 km/h (0 Bft) 95,74 %
26.12.2020 08:10 1,9 C 1,1 C 0,5 C 97 % 1024,3 hPa 0,0 l/m 0 min 0 min 0 W/m 0,0 km/h (0 Bft) 95,74 %
26.12.2020 08:12 1,9 C 1,1 C 0,5 C 97 % 1024,5 hPa 0,0 l/m 0 min 0 min 0 W/m 0,0 km/h (0 Bft) 93,62 %
26.12.2020 08:14 1,8 C 1,1 C 0,5 C 97 % 1024,5 hPa 0,0 l/m 0 min 0 min 0 W/m 12,9 km/h (3 Bft) 95,74 %
26.12.2020 08:16 1,8 C 1,1 C 0,5 C 97 % 1024,4 hPa 0,0 l/m 0 min 0 min 0 W/m 0,0 km/h (0 Bft) 95,74 %
26.12.2020 08:18 1,8 C 1,1 C 0,5 C 97 % 1024,5 hPa 0,0 l/m 0 min 0 min 0 W/m 0,0 km/h (0 Bft) 97,83 %
26.12.2020 08:20 1,8 C 1,1 C 0,5 C 97 % 1024,5 hPa 0,0 l/m 0 min 0 min 0 W/m 6,4 km/h (2 Bft) 97,87 %
26.12.2020 08:22 1,8 C 1,1 C 0,5 C 97 % 1024,5 hPa 0,0 l/m 0 min 0 min 0 W/m 6,4 km/h (2 Bft) 95,74 %
26.12.2020 08:24 1,8 C 1,1 C 0,5 C 97 % 1024,5 hPa 0,0 l/m 0 min 0 min 0 W/m 0,0 km/h (0 Bft) 93,62 %
26.12.2020 08:26 1,8 C 1,1 C 0,5 C 97 % 1024,4 hPa 0,0 l/m 0 min 0 min 0 W/m 0,0 km/h (0 Bft) 97,87 %
26.12.2020 08:28 1,8 C 1,1 C 0,5 C 97 % 1024,3 hPa 0,0 l/m 0 min 0 min 0 W/m 0,0 km/h (0 Bft) 97,87 %
26.12.2020 08:30 1,8 C 1,1 C 0,5 C 97 % 1024,3 hPa 0,0 l/m 0 min 0 min 0 W/m 0,0 km/h (0 Bft) 97,83 %
26.12.2020 08:32 1,8 C 1,1 C 0,5 C 97 % 1024,3 hPa 0,0 l/m 0 min 0 min 0 W/m 6,4 km/h (2 Bft) 97,92 %
26.12.2020 08:34 1,8 C 1,1 C 0,5 C 97 % 1024,3 hPa 0,0 l/m 0 min 0 min 0 W/m 0,0 km/h (0 Bft) 97,87 %
26.12.2020 08:36 1,8 C 1,1 C 0,5 C 97 % 1024,3 hPa 0,0 l/m 0 min 0 min 0 W/m 0,0 km/h (0 Bft) 97,87 %
26.12.2020 08:38 1,8 C 1,1 C 0,5 C 97 % 1024,2 hPa 0,0 l/m 0 min 0 min 0 W/m 6,4 km/h (2 Bft) 95,74 %
26.12.2020 08:40 1,8 C 1,1 C 0,5 C 97 % 1024,3 hPa 0,0 l/m 0 min 0 min 0 W/m 25,7 km/h (4 Bft) 97,87 %
26.12.2020 08:42 1,8 C 1,1 C 0,5 C 97 % 1024,3 hPa 0,0 l/m 0 min 0 min 0 W/m 19,3 km/h (3 Bft) 97,83 %
26.12.2020 08:44 1,8 C 1,1 C 0,5 C 97 % 1024,4 hPa 0,0 l/m 0 min 0 min 0 W/m 16,1 km/h (3 Bft) 97,87 %
26.12.2020 08:46 1,8 C 1,1 C 0,5 C 97 % 1024,3 hPa 0,0 l/m 0 min 0 min 0 W/m 22,5 km/h (4 Bft) 97,87 %
26.12.2020 08:48 1,8 C 1,1 C 0,5 C 97 % 1024,3 hPa 0,0 l/m 0 min 0 min 0 W/m 25,7 km/h (4 Bft) 100,00 %
26.12.2020 08:50 1,8 C 1,1 C 0,5 C 97 % 1024,4 hPa 0,0 l/m 0 min 0 min 0 W/m 3,2 km/h (1 Bft) 100,00 %
26.12.2020 08:52 1,8 C 1,1 C 0,5 C 97 % 1024,4 hPa 0,0 l/m 0 min 0 min 0 W/m 19,3 km/h (3 Bft) 97,83 %
26.12.2020 08:54 1,8 C 1,1 C 0,5 C 97 % 1024,4 hPa 0,0 l/m 0 min 0 min 2 W/m 6,4 km/h (2 Bft) 100,00 %
26.12.2020 08:56 1,8 C 1,1 C 0,5 C 97 % 1024,4 hPa 0,0 l/m 0 min 0 min 5 W/m 6,4 km/h (2 Bft) 100,00 %
26.12.2020 08:58 1,8 C 1,7 C 0,5 C 97 % 1024,5 hPa 0,0 l/m 0 min 0 min 5 W/m 25,7 km/h (4 Bft) 100,00 %
26.12.2020 09:00 1,8 C 1,7 C 0,5 C 97 % 1024,5 hPa 0,0 l/m 0 min 0 min 5 W/m 25,7 km/h (4 Bft) 100,00 %
26.12.2020 09:02 1,8 C 1,1 C 0,5 C 97 % 1024,5 hPa 0,0 l/m 0 min 0 min 6 W/m 0,0 km/h (0 Bft) 100,00 %
26.12.2020 09:04 1,8 C 1,1 C 0,5 C 97 % 1024,6 hPa 0,0 l/m 0 min 0 min 7 W/m 0,0 km/h (0 Bft) 100,00 %
26.12.2020 09:06 1,8 C 1,1 C 0,5 C 97 % 1024,6 hPa 0,0 l/m 0 min 0 min 7 W/m 0,0 km/h (0 Bft) 100,00 %
26.12.2020 09:08 1,8 C 1,1 C 0,5 C 97 % 1024,6 hPa 0,0 l/m 0 min 0 min 9 W/m 0,0 km/h (0 Bft) 100,00 %
26.12.2020 09:10 1,8 C 1,1 C 0,5 C 97 % 1024,6 hPa 0,0 l/m 0 min 0 min 9 W/m 3,2 km/h (1 Bft) 100,00 %
26.12.2020 09:12 1,8 C 1,7 C 0,5 C 97 % 1024,5 hPa 0,0 l/m 0 min 0 min 11 W/m 0,0 km/h (0 Bft) 100,00 %
26.12.2020 09:14 1,8 C 1,7 C 0,5 C 97 % 1024,5 hPa 0,0 l/m 0 min 0 min 11 W/m 0,0 km/h (0 Bft) 100,00 %
26.12.2020 09:16 1,8 C 1,7 C 0,5 C 97 % 1024,6 hPa 0,0 l/m 0 min 0 min 12 W/m 0,0 km/h (0 Bft) 100,00 %
26.12.2020 09:18 1,8 C 1,7 C 1,1 C 97 % 1024,6 hPa 0,0 l/m 0 min 0 min 12 W/m 0,0 km/h (0 Bft) 100,00 %
26.12.2020 09:20 1,8 C 1,7 C 1,1 C 97 % 1024,6 hPa 0,0 l/m 0 min 0 min 13 W/m 0,0 km/h (0 Bft) 97,96 %
26.12.2020 09:22 1,8 C 1,7 C 1,1 C 97 % 1024,6 hPa 0,0 l/m 0 min 0 min 14 W/m 25,7 km/h (4 Bft) 100,00 %
26.12.2020 09:24 1,8 C 1,7 C 1,1 C 97 % 1024,6 hPa 0,0 l/m 0 min 0 min 16 W/m 0,0 km/h (0 Bft) 100,00 %
26.12.2020 09:26 1,8 C 1,7 C 1,1 C 97 % 1024,6 hPa 0,0 l/m 0 min 0 min 16 W/m 25,7 km/h (4 Bft) 97,92 %
26.12.2020 09:28 1,8 C 1,7 C 1,1 C 97 % 1024,6 hPa 0,0 l/m 0 min 0 min 19 W/m 22,5 km/h (4 Bft) 95,65 %
26.12.2020 09:30 1,9 C 1,7 C 1,1 C 97 % 1024,6 hPa 0,0 l/m 0 min 0 min 23 W/m 25,7 km/h (4 Bft) 52,78 %
26.12.2020 09:32 1,9 C 1,7 C 1,1 C 97 % 1024,6 hPa 0,0 l/m 0 min 0 min 22 W/m 0,0 km/h (0 Bft) 90,48 %
26.12.2020 09:34 1,9 C 1,7 C 1,1 C 97 % 1024,6 hPa 0,0 l/m 0 min 0 min 25 W/m 16,1 km/h (3 Bft) 97,96 %
26.12.2020 09:36 1,9 C 1,7 C 1,1 C 97 % 1024,6 hPa 0,0 l/m 0 min 0 min 23 W/m 0,0 km/h (0 Bft) 97,92 %
26.12.2020 09:38 1,9 C 1,7 C 1,1 C 97 % 1024,6 hPa 0,0 l/m 0 min 0 min 25 W/m 29,0 km/h (5 Bft) 91,49 %
26.12.2020 09:40 1,9 C 1,7 C 1,1 C 97 % 1024,4 hPa 0,0 l/m 0 min 0 min 26 W/m 25,7 km/h (4 Bft) 95,65 %
26.12.2020 09:42 1,9 C 1,7 C 1,1 C 97 % 1024,4 hPa 0,0 l/m 0 min 0 min 31 W/m 25,7 km/h (4 Bft) 97,67 %
26.12.2020 09:44 1,9 C 1,7 C 1,1 C 97 % 1024,4 hPa 0,0 l/m 0 min 0 min 33 W/m 16,1 km/h (3 Bft) 98,00 %
26.12.2020 09:46 2,0 C 2,2 C 1,6 C 97 % 1024,4 hPa 0,0 l/m 0 min 0 min 43 W/m 32,2 km/h (5 Bft) 97,92 %
26.12.2020 09:49 2,0 C 2,2 C 1,6 C 97 % 1024,3 hPa 0,0 l/m 0 min 0 min 33 W/m 29,0 km/h (5 Bft) 95,71 %
26.12.2020 09:50 2,0 C 2,2 C 1,6 C 97 % 1024,3 hPa 0,0 l/m 0 min 0 min 27 W/m 22,5 km/h (4 Bft) 100,00 %
26.12.2020 09:52 2,0 C 2,2 C 1,6 C 97 % 1024,4 hPa 0,0 l/m 0 min 0 min 25 W/m 32,2 km/h (5 Bft) 97,83 %
26.12.2020 09:54 2,0 C 2,2 C 1,1 C 97 % 1024,3 hPa 0,0 l/m 0 min 0 min 26 W/m 6,4 km/h (2 Bft) 97,22 %
26.12.2020 09:56 2,0 C 2,2 C 1,6 C 97 % 1024,2 hPa 0,0 l/m 0 min 0 min 35 W/m 29,0 km/h (5 Bft) 98,11 %
26.12.2020 09:58 2,0 C 2,2 C 1,6 C 97 % 1024,3 hPa 0,0 l/m 0 min 0 min 45 W/m 25,7 km/h (4 Bft) 93,75 %
26.12.2020 10:00 2,0 C 2,2 C 1,6 C 97 % 1024,2 hPa 0,0 l/m 0 min 0 min 48 W/m 3,2 km/h (1 Bft) 94,12 %
26.12.2020 10:02 2,1 C 2,2 C 1,6 C 97 % 1024,2 hPa 0,0 l/m 0 min 0 min 43 W/m 0,0 km/h (0 Bft) 97,14 %
26.12.2020 10:04 2,1 C 2,2 C 1,6 C 97 % 1024,2 hPa 0,0 l/m 0 min 0 min 49 W/m 32,2 km/h (5 Bft) 92,59 %
26.12.2020 10:06 2,1 C 2,2 C 1,6 C 97 % 1024,1 hPa 0,0 l/m 0 min 0 min 44 W/m 16,1 km/h (3 Bft) 95,83 %
26.12.2020 10:08 2,1 C 2,2 C 1,6 C 97 % 1024,1 hPa 0,0 l/m 0 min 0 min 43 W/m 16,1 km/h (3 Bft) 97,96 %
26.12.2020 10:10 2,1 C 2,2 C 1,6 C 97 % 1024,1 hPa 0,0 l/m 0 min 0 min 42 W/m 22,5 km/h (4 Bft) 95,83 %
26.12.2020 10:12 2,1 C 2,2 C 1,6 C 97 % 1024,1 hPa 0,0 l/m 0 min 0 min 43 W/m 22,5 km/h (4 Bft) 95,74 %
26.12.2020 10:14 2,1 C 2,2 C 1,6 C 97 % 1024,1 hPa 0,0 l/m 0 min 0 min 49 W/m 38,6 km/h (5 Bft) 95,74 %
26.12.2020 10:16 2,2 C 2,2 C 1,6 C 97 % 1024,1 hPa 0,0 l/m 0 min 0 min 63 W/m 22,5 km/h (4 Bft) 95,12 %
26.12.2020 10:18 2,2 C 2,2 C 1,6 C 96 % 1024,1 hPa 0,0 l/m 0 min 0 min 72 W/m 25,7 km/h (4 Bft) 96,00 %
26.12.2020 10:20 2,3 C 2,2 C 1,6 C 96 % 1024,1 hPa 0,0 l/m 0 min 0 min 77 W/m 29,0 km/h (5 Bft) 95,83 %
26.12.2020 10:22 2,3 C 2,2 C 1,6 C 96 % 1024,1 hPa 0,0 l/m 0 min 0 min 83 W/m 3,2 km/h (1 Bft) 95,74 %
26.12.2020 10:24 2,3 C 2,8 C 2,2 C 96 % 1024,1 hPa 0,0 l/m 0 min 0 min 85 W/m 0,0 km/h (0 Bft) 95,83 %
26.12.2020 10:26 2,4 C 2,8 C 2,2 C 96 % 1024,1 hPa 0,0 l/m 0 min 0 min 91 W/m 22,5 km/h (4 Bft) 95,65 %
26.12.2020 10:28 2,4 C 2,8 C 2,2 C 96 % 1024,1 hPa 0,0 l/m 0 min 0 min 94 W/m 0,0 km/h (0 Bft) 95,74 %
26.12.2020 10:30 2,4 C 2,8 C 2,2 C 96 % 1024,0 hPa 0,0 l/m 0 min 0 min 98 W/m 3,2 km/h (1 Bft) 97,62 %
26.12.2020 10:32 2,5 C 2,8 C 2,2 C 96 % 1024,0 hPa 0,0 l/m 0 min 0 min 102 W/m 32,2 km/h (5 Bft) 94,00 %
26.12.2020 10:34 2,5 C 2,8 C 2,2 C 95 % 1024,0 hPa 0,0 l/m 0 min 0 min 93 W/m 32,2 km/h (5 Bft) 95,92 %
26.12.2020 10:36 2,5 C 2,8 C 2,2 C 95 % 1023,9 hPa 0,0 l/m 0 min 0 min 90 W/m 22,5 km/h (4 Bft) 95,74 %
26.12.2020 10:38 2,6 C 2,8 C 2,2 C 95 % 1024,0 hPa 0,0 l/m 0 min 0 min 94 W/m 6,4 km/h (2 Bft) 95,65 %
26.12.2020 10:40 2,6 C 2,8 C 2,2 C 95 % 1024,0 hPa 0,0 l/m 0 min 0 min 90 W/m 3,2 km/h (1 Bft) 95,24 %
26.12.2020 10:42 2,6 C 2,8 C 2,2 C 95 % 1024,0 hPa 0,0 l/m 0 min 0 min 82 W/m 29,0 km/h (5 Bft) 93,88 %
26.12.2020 10:44 2,7 C 2,8 C 2,2 C 95 % 1024,0 hPa 0,0 l/m 0 min 0 min 72 W/m 32,2 km/h (5 Bft) 93,88 %
26.12.2020 10:46 2,7 C 2,8 C 2,2 C 94 % 1024,0 hPa 0,0 l/m 0 min 0 min 58 W/m 38,6 km/h (5 Bft) 95,83 %
26.12.2020 10:48 2,8 C 2,8 C 2,2 C 94 % 1024,0 hPa 0,0 l/m 0 min 0 min 42 W/m 29,0 km/h (5 Bft) 93,62 %
26.12.2020 10:50 2,8 C 2,8 C 2,2 C 94 % 1024,0 hPa 0,0 l/m 0 min 0 min 35 W/m 22,5 km/h (4 Bft) 91,30 %
26.12.2020 10:52 2,8 C 2,8 C 2,2 C 94 % 1024,0 hPa 0,2 l/m 0 min 0 min 37 W/m 0,0 km/h (0 Bft) 93,62 %
26.12.2020 10:54 2,8 C 2,8 C 2,2 C 94 % 1024,0 hPa 0,0 l/m 0 min 0 min 42 W/m 3,2 km/h (1 Bft) 92,86 %
26.12.2020 10:56 2,8 C 2,8 C 2,2 C 93 % 1024,0 hPa 0,0 l/m 0 min 0 min 38 W/m 25,7 km/h (4 Bft) 91,67 %
26.12.2020 10:58 2,8 C 2,8 C 2,2 C 93 % 1024,0 hPa 0,0 l/m 0 min 0 min 33 W/m 22,5 km/h (4 Bft) 93,88 %
26.12.2020 11:00 2,8 C 2,8 C 2,2 C 93 % 1024,0 hPa 0,0 l/m 0 min 0 min 36 W/m 32,2 km/h (5 Bft) 93,88 %
26.12.2020 11:02 2,9 C 2,8 C 2,2 C 93 % 1024,0 hPa 0,0 l/m 0 min 0 min 44 W/m 22,5 km/h (4 Bft) 95,65 %
26.12.2020 11:04 2,9 C 2,8 C 2,2 C 93 % 1024,0 hPa 0,0 l/m 0 min 0 min 46 W/m 19,3 km/h (3 Bft) 95,74 %
26.12.2020 11:06 2,9 C 2,8 C 2,2 C 93 % 1023,9 hPa 0,0 l/m 0 min 0 min 40 W/m 3,2 km/h (1 Bft) 92,86 %
26.12.2020 11:08 2,9 C 2,8 C 2,2 C 93 % 1023,9 hPa 0,0 l/m 0 min 0 min 35 W/m 22,5 km/h (4 Bft) 95,92 %
26.12.2020 11:10 2,9 C 2,8 C 2,2 C 93 % 1023,9 hPa 0,0 l/m 0 min 0 min 38 W/m 35,4 km/h (5 Bft) 95,92 %
26.12.2020 11:12 2,9 C 2,8 C 2,2 C 93 % 1023,8 hPa 0,0 l/m 0 min 0 min 52 W/m 25,7 km/h (4 Bft) 93,62 %
26.12.2020 11:14 2,9 C 2,8 C 2,2 C 92 % 1023,9 hPa 0,0 l/m 0 min 0 min 65 W/m 0,0 km/h (0 Bft) 93,62 %
26.12.2020 11:16 2,9 C 2,8 C 2,2 C 92 % 1023,8 hPa 0,0 l/m 0 min 0 min 66 W/m 0,0 km/h (0 Bft) 95,74 %
26.12.2020 11:18 3,0 C 2,8 C 2,2 C 92 % 1023,8 hPa 0,0 l/m 0 min 0 min 76 W/m 0,0 km/h (0 Bft) 94,29 %
26.12.2020 11:20 3,0 C 2,8 C 2,2 C 92 % 1023,7 hPa 0,0 l/m 0 min 0 min 88 W/m 22,5 km/h (4 Bft) 96,36 %
26.12.2020 11:22 3,0 C 2,8 C 2,2 C 92 % 1023,6 hPa 0,0 l/m 0 min 0 min 97 W/m 29,0 km/h (5 Bft) 95,83 %
26.12.2020 11:24 3,0 C 3,3 C 2,7 C 92 % 1023,6 hPa 0,0 l/m 0 min 0 min 112 W/m 19,3 km/h (3 Bft) 95,92 %
26.12.2020 11:26 3,0 C 3,3 C 2,7 C 92 % 1023,5 hPa 0,0 l/m 0 min 0 min 115 W/m 12,9 km/h (3 Bft) 95,83 %
26.12.2020 11:28 3,1 C 3,3 C 2,7 C 92 % 1023,5 hPa 0,0 l/m 0 min 0 min 113 W/m 29,0 km/h (5 Bft) 95,83 %
26.12.2020 11:30 3,1 C 3,9 C 2,7 C 92 % 1023,5 hPa 0,0 l/m 0 min 0 min 117 W/m 25,7 km/h (4 Bft) 93,75 %
26.12.2020 11:32 3,1 C 3,9 C 2,7 C 92 % 1023,5 hPa 0,0 l/m 2 min 0 min 221 W/m 29,0 km/h (5 Bft) 100,00 %
26.12.2020 11:34 3,2 C 3,9 C 2,7 C 92 % 1023,4 hPa 0,0 l/m 0 min 0 min 120 W/m 32,2 km/h (5 Bft) 95,74 %
26.12.2020 11:36 3,3 C 3,9 C 2,7 C 91 % 1023,5 hPa 0,0 l/m 0 min 0 min 126 W/m 22,5 km/h (4 Bft) 96,23 %
26.12.2020 11:38 3,3 C 3,9 C 2,7 C 91 % 1023,5 hPa 0,0 l/m 0 min 0 min 105 W/m 32,2 km/h (5 Bft) 97,92 %
26.12.2020 11:40 3,4 C 3,9 C 2,7 C 91 % 1023,3 hPa 0,0 l/m 0 min 0 min 138 W/m 12,9 km/h (3 Bft) 98,00 %
26.12.2020 11:42 3,4 C 4,4 C 3,3 C 91 % 1023,3 hPa 0,0 l/m 2 min 0 min 182 W/m 19,3 km/h (3 Bft) 97,92 %
26.12.2020 11:44 3,5 C 5,0 C 3,3 C 91 % 1023,3 hPa 0,0 l/m 2 min 0 min 188 W/m 16,1 km/h (3 Bft) 97,14 %
26.12.2020 11:46 3,5 C 5,0 C 3,3 C 90 % 1023,3 hPa 0,0 l/m 2 min 0 min 166 W/m 45,1 km/h (6 Bft) 100,00 %
26.12.2020 11:48 3,6 C 4,4 C 3,3 C 90 % 1023,3 hPa 0,0 l/m 2 min 0 min 162 W/m 29,0 km/h (5 Bft) 100,00 %
26.12.2020 11:50 3,7 C 3,9 C 3,3 C 90 % 1023,2 hPa 0,0 l/m 0 min 0 min 112 W/m 25,7 km/h (4 Bft) 100,00 %
26.12.2020 11:52 3,7 C 4,4 C 3,3 C 90 % 1023,2 hPa 0,0 l/m 2 min 0 min 154 W/m 19,3 km/h (3 Bft) 100,00 %
26.12.2020 11:54 3,8 C 4,4 C 3,3 C 90 % 1023,1 hPa 0,0 l/m 0 min 0 min 133 W/m 16,1 km/h (3 Bft) 97,87 %
26.12.2020 11:56 3,8 C 3,9 C 3,3 C 89 % 1023,0 hPa 0,0 l/m 0 min 0 min 92 W/m 19,3 km/h (3 Bft) 100,00 %
26.12.2020 11:58 3,9 C 3,9 C 3,3 C 89 % 1023,1 hPa 0,0 l/m 0 min 0 min 95 W/m 16,1 km/h (3 Bft) 100,00 %
26.12.2020 12:00 3,9 C 4,4 C 3,3 C 89 % 1023,0 hPa 0,0 l/m 0 min 0 min 110 W/m 0,0 km/h (0 Bft) 100,00 %
26.12.2020 12:02 3,9 C 4,4 C 3,3 C 89 % 1023,0 hPa 0,0 l/m 0 min 0 min 124 W/m 29,0 km/h (5 Bft) 97,30 %
26.12.2020 12:04 4,0 C 4,4 C 3,3 C 89 % 1022,9 hPa 0,0 l/m 0 min 0 min 147 W/m 16,1 km/h (3 Bft) 97,87 %
26.12.2020 12:08 4,0 C 4,4 C 3,8 C 88 % 1022,9 hPa 0,0 l/m 0 min 0 min 132 W/m 3,2 km/h (1 Bft) 100,00 %
26.12.2020 12:10 4,0 C 4,4 C 3,8 C 88 % 1022,9 hPa 0,0 l/m 0 min 0 min 109 W/m 19,3 km/h (3 Bft) 100,00 %
26.12.2020 12:12 4,1 C 6,1 C 3,8 C 88 % 1022,8 hPa 0,0 l/m 2 min 0 min 160 W/m 0,0 km/h (0 Bft) 100,00 %
26.12.2020 12:14 4,1 C 7,2 C 3,8 C 88 % 1022,8 hPa 0,0 l/m 2 min 0 min 275 W/m 25,7 km/h (4 Bft) 97,83 %
26.12.2020 12:16 4,2 C 7,2 C 3,8 C 88 % 1022,7 hPa 0,0 l/m 2 min 0 min 277 W/m 25,7 km/h (4 Bft) 98,18 %
26.12.2020 12:18 4,3 C 6,7 C 3,8 C 87 % 1022,6 hPa 0,0 l/m 2 min 0 min 264 W/m 0,0 km/h (0 Bft) 97,96 %
26.12.2020 12:20 4,4 C 7,2 C 4,4 C 87 % 1022,7 hPa 0,0 l/m 2 min 0 min 254 W/m 0,0 km/h (0 Bft) 100,00 %
26.12.2020 12:22 4,4 C 6,1 C 3,8 C 87 % 1022,6 hPa 0,0 l/m 2 min 0 min 234 W/m 16,1 km/h (3 Bft) 100,00 %
26.12.2020 12:24 4,5 C 6,7 C 4,4 C 86 % 1022,5 hPa 0,0 l/m 2 min 0 min 261 W/m 12,9 km/h (3 Bft) 100,00 %
26.12.2020 12:25 4,5 C 6,7 C 4,4 C 86 % 1022,5 hPa 0,0 l/m 1 min 0 min 257 W/m 22,5 km/h (4 Bft) 100,00 %
26.12.2020 12:28 4,6 C 7,2 C 4,9 C 86 % 1022,5 hPa 0,0 l/m 3 min 0 min 277 W/m 22,5 km/h (4 Bft) 97,87 %
26.12.2020 12:30 4,7 C 7,2 C 4,9 C 86 % 1022,4 hPa 0,0 l/m 2 min 0 min 278 W/m 29,0 km/h (5 Bft) 61,54 %
26.12.2020 12:32 4,8 C 6,7 C 4,9 C 85 % 1022,4 hPa 0,0 l/m 2 min 0 min 262 W/m 0,0 km/h (0 Bft) 100,00 %
26.12.2020 12:34 4,8 C 7,8 C 4,9 C 85 % 1022,3 hPa 0,0 l/m 2 min 0 min 261 W/m 0,0 km/h (0 Bft) 100,00 %
26.12.2020 12:36 4,9 C 7,8 C 5,5 C 85 % 1022,3 hPa 0,0 l/m 2 min 0 min 255 W/m 0,0 km/h (0 Bft) 100,00 %
26.12.2020 12:38 4,9 C 6,7 C 5,5 C 85 % 1022,3 hPa 0,0 l/m 2 min 0 min 265 W/m 0,0 km/h (0 Bft) 97,22 %
26.12.2020 12:40 4,9 C 6,7 C 4,9 C 85 % 1022,3 hPa 0,0 l/m 2 min 0 min 246 W/m 16,1 km/h (3 Bft) 100,00 %
26.12.2020 12:42 5,0 C 6,7 C 5,5 C 84 % 1022,3 hPa 0,0 l/m 2 min 0 min 282 W/m 29,0 km/h (5 Bft) 100,00 %
26.12.2020 12:44 5,0 C 6,7 C 5,5 C 84 % 1022,3 hPa 0,0 l/m 2 min 0 min 318 W/m 45,1 km/h (6 Bft) 100,00 %
26.12.2020 12:46 5,0 C 6,1 C 5,5 C 84 % 1022,2 hPa 0,0 l/m 2 min 0 min 299 W/m 29,0 km/h (5 Bft) 100,00 %
26.12.2020 12:48 5,0 C 6,7 C 5,5 C 84 % 1022,1 hPa 0,0 l/m 2 min 0 min 290 W/m 22,5 km/h (4 Bft) 100,00 %
26.12.2020 12:50 5,1 C 6,1 C 5,5 C 84 % 1022,2 hPa 0,0 l/m 2 min 0 min 228 W/m 0,0 km/h (0 Bft) 100,00 %
26.12.2020 12:52 5,1 C 5,6 C 4,4 C 84 % 1022,2 hPa 0,0 l/m 0 min 0 min 117 W/m 0,0 km/h (0 Bft) 95,92 %
26.12.2020 12:54 5,1 C 5,0 C 4,4 C 83 % 1022,1 hPa 0,0 l/m 0 min 0 min 95 W/m 0,0 km/h (0 Bft) 100,00 %
26.12.2020 12:56 5,1 C 4,4 C 3,8 C 83 % 1022,1 hPa 0,0 l/m 0 min 0 min 76 W/m 19,3 km/h (3 Bft) 100,00 %
26.12.2020 12:58 5,1 C 4,4 C 3,8 C 83 % 1022,2 hPa 0,0 l/m 0 min 0 min 83 W/m 19,3 km/h (3 Bft) 98,15 %
26.12.2020 13:00 5,1 C 4,4 C 3,8 C 83 % 1022,1 hPa 0,0 l/m 0 min 0 min 85 W/m 16,1 km/h (3 Bft) 100,00 %
26.12.2020 13:02 5,0 C 4,4 C 3,8 C 84 % 1022,1 hPa 0,0 l/m 0 min 0 min 88 W/m 22,5 km/h (4 Bft) 100,00 %
26.12.2020 13:04 5,0 C 4,4 C 3,8 C 84 % 1022,1 hPa 0,0 l/m 0 min 0 min 94 W/m 0,0 km/h (0 Bft) 97,87 %
26.12.2020 13:06 5,0 C 4,4 C 3,3 C 84 % 1022,0 hPa 0,0 l/m 0 min 0 min 101 W/m 22,5 km/h (4 Bft) 100,00 %
26.12.2020 13:08 5,0 C 4,4 C 3,8 C 84 % 1021,9 hPa 0,0 l/m 0 min 0 min 106 W/m 29,0 km/h (5 Bft) 100,00 %
26.12.2020 13:10 5,0 C 5,0 C 3,8 C 84 % 1022,0 hPa 0,0 l/m 0 min 0 min 110 W/m 25,7 km/h (4 Bft) 100,00 %
26.12.2020 13:12 5,0 C 5,6 C 3,8 C 84 % 1021,9 hPa 0,0 l/m 0 min 0 min 128 W/m 25,7 km/h (4 Bft) 97,37 %
26.12.2020 13:14 5,0 C 5,0 C 3,8 C 84 % 1021,8 hPa 0,0 l/m 0 min 0 min 89 W/m 41,8 km/h (6 Bft) 97,92 %
26.12.2020 13:16 5,0 C 5,0 C 3,3 C 84 % 1021,7 hPa 0,0 l/m 0 min 0 min 90 W/m 25,7 km/h (4 Bft) 95,74 %
26.12.2020 13:18 5,0 C 4,4 C 3,3 C 84 % 1021,6 hPa 0,0 l/m 0 min 0 min 89 W/m 29,0 km/h (5 Bft) 97,87 %
26.12.2020 13:20 5,0 C 4,4 C 3,3 C 84 % 1021,5 hPa 0,0 l/m 0 min 0 min 90 W/m 22,5 km/h (4 Bft) 96,15 %
26.12.2020 13:22 5,0 C 4,4 C 3,3 C 84 % 1021,5 hPa 0,0 l/m 0 min 0 min 90 W/m 16,1 km/h (3 Bft) 97,96 %
26.12.2020 13:24 5,0 C 4,4 C 3,3 C 84 % 1021,5 hPa 0,0 l/m 0 min 0 min 77 W/m 19,3 km/h (3 Bft) 94,59 %
26.12.2020 13:26 4,9 C 4,4 C 3,3 C 84 % 1021,6 hPa 0,0 l/m 0 min 0 min 62 W/m 12,9 km/h (3 Bft) 97,96 %
26.12.2020 13:28 4,9 C 4,4 C 3,3 C 84 % 1021,6 hPa 0,0 l/m 0 min 0 min 56 W/m 19,3 km/h (3 Bft) 97,87 %
26.12.2020 13:30 4,9 C 4,4 C 2,7 C 84 % 1021,5 hPa 0,0 l/m 0 min 0 min 61 W/m 19,3 km/h (3 Bft) 96,36 %
26.12.2020 13:32 4,9 C 4,4 C 2,7 C 84 % 1021,4 hPa 0,0 l/m 0 min 0 min 68 W/m 32,2 km/h (5 Bft) 97,37 %
26.12.2020 13:34 4,9 C 4,4 C 2,7 C 84 % 1021,4 hPa 0,0 l/m 0 min 0 min 64 W/m 29,0 km/h (5 Bft) 95,74 %
26.12.2020 13:36 4,9 C 4,4 C 2,7 C 84 % 1021,5 hPa 0,0 l/m 0 min 0 min 59 W/m 32,2 km/h (5 Bft) 97,92 %
26.12.2020 13:38 4,9 C 4,4 C 2,7 C 84 % 1021,5 hPa 0,0 l/m 0 min 0 min 44 W/m 9,7 km/h (2 Bft) 95,92 %
26.12.2020 13:40 4,9 C 4,4 C 2,7 C 84 % 1021,4 hPa 0,0 l/m 0 min 0 min 48 W/m 29,0 km/h (5 Bft) 95,74 %
26.12.2020 13:42 4,9 C 4,4 C 2,7 C 84 % 1021,3 hPa 0,0 l/m 0 min 0 min 47 W/m 29,0 km/h (5 Bft) 92,86 %
26.12.2020 13:44 4,9 C 4,4 C 2,7 C 85 % 1021,3 hPa 0,0 l/m 0 min 0 min 47 W/m 22,5 km/h (4 Bft) 95,83 %
26.12.2020 13:46 4,9 C 4,4 C 2,7 C 85 % 1021,2 hPa 0,0 l/m 0 min 0 min 51 W/m 22,5 km/h (4 Bft) 93,88 %
26.12.2020 13:48 4,9 C 4,4 C 2,7 C 85 % 1021,1 hPa 0,0 l/m 0 min 0 min 55 W/m 29,0 km/h (5 Bft) 91,67 %
26.12.2020 13:50 4,9 C 4,4 C 2,7 C 85 % 1021,0 hPa 0,0 l/m 0 min 0 min 49 W/m 6,4 km/h (2 Bft) 95,74 %
26.12.2020 13:52 4,9 C 4,4 C 2,7 C 85 % 1021,1 hPa 0,0 l/m 0 min 0 min 40 W/m 29,0 km/h (5 Bft) 95,74 %
26.12.2020 13:54 4,9 C 4,4 C 2,7 C 85 % 1021,0 hPa 0,0 l/m 0 min 0 min 49 W/m 22,5 km/h (4 Bft) 95,74 %
26.12.2020 13:56 4,9 C 4,4 C 2,7 C 85 % 1021,0 hPa 0,0 l/m 0 min 0 min 51 W/m 12,9 km/h (3 Bft) 94,29 %
26.12.2020 13:58 4,9 C 4,4 C 2,7 C 85 % 1020,9 hPa 0,0 l/m 0 min 0 min 47 W/m 16,1 km/h (3 Bft) 98,11 %
26.12.2020 14:00 4,9 C 4,4 C 2,7 C 85 % 1020,9 hPa 0,0 l/m 0 min 0 min 44 W/m 38,6 km/h (5 Bft) 97,96 %
26.12.2020 14:02 4,9 C 4,4 C 2,7 C 85 % 1020,9 hPa 0,0 l/m 0 min 0 min 43 W/m 25,7 km/h (4 Bft) 97,96 %
26.12.2020 14:04 4,9 C 4,4 C 2,7 C 85 % 1020,8 hPa 0,0 l/m 0 min 0 min 44 W/m 22,5 km/h (4 Bft) 97,92 %
26.12.2020 14:06 4,9 C 4,4 C 2,7 C 85 % 1020,8 hPa 0,0 l/m 0 min 0 min 49 W/m 12,9 km/h (3 Bft) 97,83 %
26.12.2020 14:08 4,9 C 4,4 C 2,7 C 85 % 1020,7 hPa 0,0 l/m 0 min 0 min 48 W/m 25,7 km/h (4 Bft) 95,74 %
26.12.2020 14:10 4,9 C 4,4 C 2,7 C 85 % 1020,7 hPa 0,0 l/m 0 min 0 min 47 W/m 32,2 km/h (5 Bft) 97,87 %
26.12.2020 14:12 4,9 C 4,4 C 2,7 C 85 % 1020,7 hPa 0,0 l/m 0 min 0 min 45 W/m 12,9 km/h (3 Bft) 97,14 %
26.12.2020 14:14 4,9 C 4,4 C 2,7 C 85 % 1020,6 hPa 0,0 l/m 0 min 0 min 40 W/m 22,5 km/h (4 Bft) 98,21 %
26.12.2020 14:16 4,9 C 4,4 C 2,7 C 85 % 1020,5 hPa 0,0 l/m 0 min 0 min 38 W/m 22,5 km/h (4 Bft) 98,00 %
26.12.2020 14:18 4,9 C 4,4 C 2,7 C 85 % 1020,4 hPa 0,0 l/m 0 min 0 min 38 W/m 25,7 km/h (4 Bft) 95,74 %
26.12.2020 14:20 4,9 C 4,4 C 2,7 C 85 % 1020,4 hPa 0,0 l/m 0 min 0 min 37 W/m 38,6 km/h (5 Bft) 97,62 %
26.12.2020 14:22 4,9 C 4,4 C 2,7 C 85 % 1020,3 hPa 0,0 l/m 0 min 0 min 36 W/m 16,1 km/h (3 Bft) 95,92 %
26.12.2020 14:24 4,9 C 4,4 C 2,7 C 85 % 1020,3 hPa 0,0 l/m 0 min 0 min 37 W/m 19,3 km/h (3 Bft) 97,96 %
26.12.2020 14:26 4,9 C 4,4 C 2,7 C 85 % 1020,2 hPa 0,0 l/m 0 min 0 min 34 W/m 0,0 km/h (0 Bft) 100,00 %
26.12.2020 14:28 4,9 C 4,4 C 2,7 C 85 % 1020,2 hPa 0,0 l/m 0 min 0 min 33 W/m 3,2 km/h (1 Bft) 100,00 %
26.12.2020 14:30 5,0 C 4,4 C 2,7 C 85 % 1020,2 hPa 0,0 l/m 0 min 0 min 33 W/m 12,9 km/h (3 Bft) 100,00 %
26.12.2020 14:32 5,0 C 4,4 C 2,7 C 85 % 1020,2 hPa 0,0 l/m 0 min 0 min 32 W/m 0,0 km/h (0 Bft) 100,00 %
26.12.2020 14:34 5,0 C 4,4 C 2,7 C 85 % 1020,1 hPa 0,0 l/m 0 min 0 min 31 W/m 0,0 km/h (0 Bft) 100,00 %
26.12.2020 14:36 5,0 C 4,4 C 2,7 C 85 % 1020,1 hPa 0,0 l/m 0 min 0 min 29 W/m 19,3 km/h (3 Bft) 100,00 %
26.12.2020 14:38 5,0 C 4,4 C 2,7 C 85 % 1020,0 hPa 0,0 l/m 0 min 0 min 29 W/m 25,7 km/h (4 Bft) 100,00 %
26.12.2020 14:40 5,0 C 4,4 C 2,7 C 85 % 1020,0 hPa 0,0 l/m 0 min 0 min 28 W/m 22,5 km/h (4 Bft) 100,00 %
26.12.2020 14:42 5,0 C 4,4 C 2,7 C 85 % 1020,0 hPa 0,0 l/m 0 min 0 min 29 W/m 3,2 km/h (1 Bft) 100,00 %
26.12.2020 14:44 5,0 C 4,4 C 2,7 C 86 % 1019,9 hPa 0,0 l/m 0 min 0 min 30 W/m 16,1 km/h (3 Bft) 95,83 %
26.12.2020 14:46 5,0 C 4,4 C 2,7 C 85 % 1019,9 hPa 0,0 l/m 0 min 0 min 28 W/m 0,0 km/h (0 Bft) 97,92 %
26.12.2020 14:48 5,0 C 4,4 C 2,7 C 85 % 1019,9 hPa 0,0 l/m 0 min 0 min 28 W/m 16,1 km/h (3 Bft) 97,87 %
26.12.2020 14:50 5,0 C 4,4 C 2,7 C 85 % 1019,9 hPa 0,0 l/m 0 min 0 min 31 W/m 25,7 km/h (4 Bft) 97,87 %
26.12.2020 14:52 5,0 C 4,4 C 2,7 C 85 % 1019,9 hPa 0,0 l/m 0 min 0 min 30 W/m 19,3 km/h (3 Bft) 95,24 %
26.12.2020 14:54 5,0 C 4,4 C 2,7 C 85 % 1019,9 hPa 0,0 l/m 0 min 0 min 26 W/m 22,5 km/h (4 Bft) 97,87 %
26.12.2020 14:56 5,0 C 4,4 C 2,7 C 85 % 1019,9 hPa 0,0 l/m 0 min 0 min 20 W/m 19,3 km/h (3 Bft) 98,00 %
26.12.2020 14:58 5,0 C 4,4 C 2,7 C 85 % 1019,8 hPa 0,0 l/m 0 min 0 min 23 W/m 19,3 km/h (3 Bft) 97,92 %
26.12.2020 15:00 5,0 C 4,4 C 2,7 C 85 % 1019,8 hPa 0,0 l/m 0 min 0 min 26 W/m 29,0 km/h (5 Bft) 94,29 %
26.12.2020 15:02 5,0 C 4,4 C 2,7 C 85 % 1019,7 hPa 0,0 l/m 0 min 0 min 29 W/m 19,3 km/h (3 Bft) 60,00 %
26.12.2020 15:04 5,0 C 4,4 C 2,7 C 86 % 1019,7 hPa 0,0 l/m 0 min 0 min 24 W/m 0,0 km/h (0 Bft) 95,92 %
26.12.2020 15:06 5,0 C 4,4 C 2,7 C 86 % 1019,8 hPa 0,0 l/m 0 min 0 min 23 W/m 3,2 km/h (1 Bft) 95,74 %
26.12.2020 15:08 5,0 C 4,4 C 2,7 C 86 % 1019,8 hPa 0,0 l/m 0 min 0 min 19 W/m 0,0 km/h (0 Bft) 100,00 %
26.12.2020 15:10 5,0 C 4,4 C 2,7 C 86 % 1019,8 hPa 0,0 l/m 0 min 0 min 19 W/m 3,2 km/h (1 Bft) 97,87 %
26.12.2020 15:12 5,0 C 4,4 C 2,7 C 86 % 1019,9 hPa 0,0 l/m 0 min 0 min 19 W/m 19,3 km/h (3 Bft) 94,44 %
26.12.2020 15:14 5,0 C 4,4 C 2,7 C 86 % 1019,9 hPa 0,0 l/m 0 min 0 min 19 W/m 0,0 km/h (0 Bft) 96,00 %
26.12.2020 15:16 5,0 C 4,4 C 2,7 C 86 % 1019,8 hPa 0,0 l/m 0 min 0 min 18 W/m 3,2 km/h (1 Bft) 95,74 %
26.12.2020 15:18 5,0 C 4,4 C 2,2 C 86 % 1019,9 hPa 0,0 l/m 0 min 0 min 16 W/m 0,0 km/h (0 Bft) 97,22 %
26.12.2020 15:20 5,0 C 4,4 C 2,2 C 86 % 1019,7 hPa 0,0 l/m 0 min 0 min 14 W/m 19,3 km/h (3 Bft) 97,87 %
26.12.2020 15:22 5,0 C 4,4 C 2,2 C 86 % 1019,8 hPa 0,0 l/m 0 min 0 min 13 W/m 29,0 km/h (5 Bft) 95,74 %
26.12.2020 15:24 5,0 C 4,4 C 2,2 C 86 % 1019,8 hPa 0,0 l/m 0 min 0 min 12 W/m 12,9 km/h (3 Bft) 98,15 %
26.12.2020 15:26 5,0 C 4,4 C 2,2 C 86 % 1019,8 hPa 0,0 l/m 0 min 0 min 11 W/m 25,7 km/h (4 Bft) 97,96 %
26.12.2020 15:28 5,0 C 4,4 C 2,2 C 86 % 1019,7 hPa 0,0 l/m 0 min 0 min 10 W/m 29,0 km/h (5 Bft) 97,37 %
26.12.2020 15:30 5,0 C 4,4 C 2,2 C 86 % 1019,8 hPa 0,0 l/m 0 min 0 min 10 W/m 29,0 km/h (5 Bft) 97,83 %
26.12.2020 15:32 5,0 C 4,4 C 2,2 C 86 % 1019,8 hPa 0,0 l/m 0 min 0 min 11 W/m 32,2 km/h (5 Bft) 98,21 %
26.12.2020 15:34 5,0 C 4,4 C 2,2 C 86 % 1019,8 hPa 0,0 l/m 0 min 0 min 10 W/m 22,5 km/h (4 Bft) 95,92 %
26.12.2020 15:36 5,0 C 4,4 C 2,2 C 86 % 1019,7 hPa 0,0 l/m 0 min 0 min 11 W/m 3,2 km/h (1 Bft) 97,22 %
26.12.2020 15:38 5,0 C 4,4 C 2,2 C 86 % 1019,6 hPa 0,0 l/m 0 min 0 min 11 W/m 25,7 km/h (4 Bft) 97,87 %
26.12.2020 15:40 5,0 C 4,4 C 2,2 C 86 % 1019,6 hPa 0,0 l/m 0 min 0 min 11 W/m 41,8 km/h (6 Bft) 97,87 %
26.12.2020 15:42 5,0 C 4,4 C 2,2 C 86 % 1019,5 hPa 0,0 l/m 0 min 0 min 10 W/m 25,7 km/h (4 Bft) 98,15 %
26.12.2020 15:44 5,0 C 4,4 C 2,2 C 86 % 1019,5 hPa 0,0 l/m 0 min 0 min 9 W/m 25,7 km/h (4 Bft) 97,96 %
26.12.2020 15:46 5,0 C 4,4 C 2,2 C 86 % 1019,5 hPa 0,0 l/m 0 min 0 min 9 W/m 41,8 km/h (6 Bft) 95,83 %
26.12.2020 15:48 5,0 C 4,4 C 2,2 C 86 % 1019,4 hPa 0,0 l/m 0 min 0 min 10 W/m 32,2 km/h (5 Bft) 95,83 %
26.12.2020 15:50 5,0 C 4,4 C 2,2 C 86 % 1019,3 hPa 0,0 l/m 0 min 0 min 11 W/m 16,1 km/h (3 Bft) 97,83 %
26.12.2020 15:52 5,0 C 4,4 C 2,2 C 86 % 1019,4 hPa 0,0 l/m 0 min 0 min 11 W/m 25,7 km/h (4 Bft) 100,00 %
26.12.2020 15:54 5,0 C 4,4 C 2,2 C 86 % 1019,3 hPa 0,0 l/m 0 min 0 min 9 W/m 38,6 km/h (5 Bft) 97,83 %
26.12.2020 15:56 5,0 C 4,4 C 2,2 C 86 % 1019,4 hPa 0,0 l/m 0 min 0 min 9 W/m 29,0 km/h (5 Bft) 94,64 %
26.12.2020 15:58 5,0 C 4,4 C 2,2 C 86 % 1019,4 hPa 0,0 l/m 0 min 0 min 9 W/m 32,2 km/h (5 Bft) 97,96 %
26.12.2020 16:00 5,0 C 4,4 C 2,2 C 86 % 1019,3 hPa 0,0 l/m 0 min 0 min 7 W/m 29,0 km/h (5 Bft) 97,22 %
26.12.2020 16:02 5,0 C 4,4 C 2,2 C 86 % 1019,3 hPa 0,0 l/m 0 min 0 min 5 W/m 3,2 km/h (1 Bft) 98,18 %
26.12.2020 16:04 5,0 C 4,4 C 2,2 C 86 % 1019,3 hPa 0,0 l/m 0 min 0 min 5 W/m 25,7 km/h (4 Bft) 97,87 %
26.12.2020 16:06 5,0 C 4,4 C 2,2 C 86 % 1019,2 hPa 0,0 l/m 0 min 0 min 5 W/m 29,0 km/h (5 Bft) 96,00 %
26.12.2020 16:08 5,0 C 4,4 C 2,2 C 86 % 1019,2 hPa 0,0 l/m 0 min 0 min 5 W/m 22,5 km/h (4 Bft) 100,00 %
26.12.2020 16:10 5,0 C 4,4 C 2,2 C 86 % 1019,1 hPa 0,0 l/m 0 min 0 min 5 W/m 25,7 km/h (4 Bft) 93,62 %
26.12.2020 16:12 5,0 C 4,4 C 2,2 C 86 % 1019,1 hPa 0,0 l/m 0 min 0 min 3 W/m 16,1 km/h (3 Bft) 97,87 %
26.12.2020 16:14 5,0 C 4,4 C 2,2 C 86 % 1019,1 hPa 0,0 l/m 0 min 0 min 0 W/m 29,0 km/h (5 Bft) 97,87 %
26.12.2020 16:16 5,0 C 4,4 C 2,2 C 86 % 1019,0 hPa 0,0 l/m 0 min 0 min 0 W/m 22,5 km/h (4 Bft) 94,34 %
26.12.2020 16:18 5,0 C 4,4 C 2,2 C 86 % 1019,0 hPa 0,0 l/m 0 min 0 min 0 W/m 29,0 km/h (5 Bft) 97,96 %
26.12.2020 16:20 5,0 C 4,4 C 2,2 C 86 % 1018,9 hPa 0,0 l/m 0 min 0 min 0 W/m 22,5 km/h (4 Bft) 95,83 %
26.12.2020 16:22 5,0 C 4,4 C 2,2 C 86 % 1018,9 hPa 0,0 l/m 0 min 0 min 0 W/m 22,5 km/h (4 Bft) 94,59 %
26.12.2020 16:24 5,0 C 4,4 C 2,2 C 86 % 1018,9 hPa 0,0 l/m 0 min 0 min 0 W/m 22,5 km/h (4 Bft) 97,87 %
26.12.2020 16:26 5,0 C 4,4 C 2,2 C 86 % 1018,9 hPa 0,0 l/m 0 min 0 min 0 W/m 25,7 km/h (4 Bft) 93,62 %
26.12.2020 16:28 5,0 C 4,4 C 2,2 C 86 % 1018,9 hPa 0,0 l/m 0 min 0 min 0 W/m 12,9 km/h (3 Bft) 93,48 %
26.12.2020 16:30 5,0 C 4,4 C 2,2 C 86 % 1018,8 hPa 0,0 l/m 0 min 0 min 0 W/m 32,2 km/h (5 Bft) 93,62 %
26.12.2020 16:32 5,0 C 4,4 C 2,2 C 86 % 1018,8 hPa 0,0 l/m 0 min 0 min 0 W/m 6,4 km/h (2 Bft) 95,74 %
26.12.2020 16:34 5,0 C 4,4 C 2,2 C 86 % 1018,7 hPa 0,0 l/m 0 min 0 min 0 W/m 12,9 km/h (3 Bft) 95,74 %
26.12.2020 16:36 5,0 C 4,4 C 2,2 C 86 % 1018,8 hPa 0,0 l/m 0 min 0 min 0 W/m 29,0 km/h (5 Bft) 93,62 %
26.12.2020 16:38 4,9 C 4,4 C 2,2 C 86 % 1018,7 hPa 0,0 l/m 0 min 0 min 0 W/m 25,7 km/h (4 Bft) 95,74 %
26.12.2020 16:40 4,9 C 4,4 C 2,2 C 86 % 1018,8 hPa 0,0 l/m 0 min 0 min 0 W/m 19,3 km/h (3 Bft) 93,48 %
26.12.2020 16:42 4,9 C 4,4 C 2,2 C 85 % 1018,7 hPa 0,0 l/m 0 min 0 min 0 W/m 22,5 km/h (4 Bft) 93,62 %
26.12.2020 16:44 4,9 C 4,4 C 2,2 C 85 % 1018,7 hPa 0,0 l/m 0 min 0 min 0 W/m 32,2 km/h (5 Bft) 95,74 %
26.12.2020 16:46 5,0 C 4,4 C 2,2 C 85 % 1018,6 hPa 0,0 l/m 0 min 0 min 0 W/m 41,8 km/h (6 Bft) 97,87 %
26.12.2020 16:48 5,0 C 4,4 C 2,2 C 85 % 1018,6 hPa 0,0 l/m 0 min 0 min 0 W/m 19,3 km/h (3 Bft) 97,87 %
26.12.2020 16:50 5,0 C 4,4 C 2,2 C 85 % 1018,7 hPa 0,0 l/m 0 min 0 min 0 W/m 16,1 km/h (3 Bft) 95,74 %
26.12.2020 16:52 5,0 C 4,4 C 2,2 C 85 % 1018,7 hPa 0,0 l/m 0 min 0 min 0 W/m 0,0 km/h (0 Bft) 97,83 %
26.12.2020 16:54 4,9 C 4,4 C 2,2 C 85 % 1018,6 hPa 0,0 l/m 0 min 0 min 0 W/m 35,4 km/h (5 Bft) 97,87 %
26.12.2020 16:56 4,9 C 4,4 C 2,2 C 85 % 1018,6 hPa 0,0 l/m 0 min 0 min 0 W/m 35,4 km/h (5 Bft) 97,87 %
26.12.2020 16:58 4,9 C 4,4 C 2,2 C 85 % 1018,5 hPa 0,0 l/m 0 min 0 min 0 W/m 35,4 km/h (5 Bft) 97,87 %
26.12.2020 17:00 4,9 C 4,4 C 2,2 C 85 % 1018,4 hPa 0,0 l/m 0 min 0 min 0 W/m 38,6 km/h (5 Bft) 97,87 %
26.12.2020 17:02 4,9 C 4,4 C 2,2 C 85 % 1018,4 hPa 0,0 l/m 0 min 0 min 0 W/m 38,6 km/h (5 Bft) 98,08 %
26.12.2020 17:04 4,9 C 4,4 C 2,2 C 85 % 1018,3 hPa 0,0 l/m 0 min 0 min 0 W/m 32,2 km/h (5 Bft) 95,74 %
26.12.2020 17:06 4,9 C 4,4 C 2,2 C 85 % 1018,2 hPa 0,0 l/m 0 min 0 min 0 W/m 32,2 km/h (5 Bft) 97,87 %
26.12.2020 17:08 4,9 C 4,4 C 2,2 C 86 % 1018,1 hPa 0,0 l/m 0 min 0 min 0 W/m 12,9 km/h (3 Bft) 97,92 %
26.12.2020 17:10 4,9 C 4,4 C 2,2 C 86 % 1018,1 hPa 0,0 l/m 0 min 0 min 0 W/m 29,0 km/h (5 Bft) 97,87 %
26.12.2020 17:12 4,9 C 4,4 C 2,2 C 86 % 1018,0 hPa 0,0 l/m 0 min 0 min 0 W/m 19,3 km/h (3 Bft) 100,00 %
26.12.2020 17:14 4,9 C 4,4 C 2,2 C 86 % 1017,9 hPa 0,0 l/m 0 min 0 min 0 W/m 29,0 km/h (5 Bft) 97,87 %
26.12.2020 17:16 4,9 C 4,4 C 2,2 C 86 % 1017,9 hPa 0,0 l/m 0 min 0 min 0 W/m 29,0 km/h (5 Bft) 97,87 %
26.12.2020 17:18 4,9 C 4,4 C 2,2 C 86 % 1017,9 hPa 0,0 l/m 0 min 0 min 0 W/m 32,2 km/h (5 Bft) 97,87 %
26.12.2020 17:20 4,9 C 4,4 C 1,6 C 86 % 1017,9 hPa 0,0 l/m 0 min 0 min 0 W/m 22,5 km/h (4 Bft) 97,87 %
26.12.2020 17:22 4,9 C 4,4 C 1,6 C 86 % 1017,8 hPa 0,0 l/m 0 min 0 min 0 W/m 22,5 km/h (4 Bft) 100,00 %
26.12.2020 17:24 4,9 C 4,4 C 2,2 C 86 % 1017,7 hPa 0,0 l/m 0 min 0 min 0 W/m 25,7 km/h (4 Bft) 100,00 %
26.12.2020 17:26 4,8 C 4,4 C 2,2 C 86 % 1017,7 hPa 0,0 l/m 0 min 0 min 0 W/m 25,7 km/h (4 Bft) 100,00 %
26.12.2020 17:28 4,8 C 4,4 C 2,2 C 86 % 1017,8 hPa 0,0 l/m 0 min 0 min 0 W/m 38,6 km/h (5 Bft) 100,00 %
26.12.2020 17:30 4,8 C 4,4 C 2,2 C 86 % 1017,8 hPa 0,0 l/m 0 min 0 min 0 W/m 25,7 km/h (4 Bft) 100,00 %
26.12.2020 17:32 4,8 C 4,4 C 1,6 C 86 % 1017,7 hPa 0,0 l/m 0 min 0 min 0 W/m 25,7 km/h (4 Bft) 100,00 %
26.12.2020 17:34 4,8 C 4,4 C 1,6 C 86 % 1017,7 hPa 0,0 l/m 0 min 0 min 0 W/m 19,3 km/h (3 Bft) 100,00 %
26.12.2020 17:36 4,8 C 4,4 C 1,6 C 86 % 1017,7 hPa 0,0 l/m 0 min 0 min 0 W/m 22,5 km/h (4 Bft) 97,83 %
26.12.2020 17:38 4,8 C 4,4 C 1,6 C 86 % 1017,6 hPa 0,0 l/m 0 min 0 min 0 W/m 38,6 km/h (5 Bft) 100,00 %
26.12.2020 17:40 4,8 C 4,4 C 1,6 C 86 % 1017,5 hPa 0,0 l/m 0 min 0 min 0 W/m 25,7 km/h (4 Bft) 100,00 %
26.12.2020 17:42 4,8 C 4,4 C 1,6 C 86 % 1017,5 hPa 0,0 l/m 0 min 0 min 0 W/m 25,7 km/h (4 Bft) 97,87 %
26.12.2020 17:44 4,8 C 4,4 C 1,6 C 86 % 1017,4 hPa 0,0 l/m 0 min 0 min 0 W/m 25,7 km/h (4 Bft) 97,87 %
26.12.2020 17:46 4,8 C 4,4 C 1,6 C 86 % 1017,3 hPa 0,0 l/m 0 min 0 min 0 W/m 35,4 km/h (5 Bft) 100,00 %
26.12.2020 17:48 4,8 C 4,4 C 1,6 C 86 % 1017,2 hPa 0,0 l/m 0 min 0 min 0 W/m 41,8 km/h (6 Bft) 100,00 %
26.12.2020 17:50 4,8 C 4,4 C 1,6 C 86 % 1017,3 hPa 0,0 l/m 0 min 0 min 0 W/m 45,1 km/h (6 Bft) 97,87 %
26.12.2020 17:52 4,8 C 4,4 C 1,6 C 86 % 1017,2 hPa 0,0 l/m 0 min 0 min 0 W/m 22,5 km/h (4 Bft) 100,00 %
26.12.2020 17:54 4,8 C 4,4 C 1,6 C 86 % 1017,2 hPa 0,0 l/m 0 min 0 min 0 W/m 22,5 km/h (4 Bft) 100,00 %
26.12.2020 17:56 4,8 C 4,4 C 1,6 C 86 % 1017,1 hPa 0,0 l/m 0 min 0 min 0 W/m 19,3 km/h (3 Bft) 100,00 %
26.12.2020 17:58 4,8 C 4,4 C 1,6 C 86 % 1017,1 hPa 0,0 l/m 0 min 0 min 0 W/m 32,2 km/h (5 Bft) 100,00 %
26.12.2020 18:00 4,8 C 4,4 C 1,6 C 86 % 1017,0 hPa 0,0 l/m 0 min 0 min 0 W/m 29,0 km/h (5 Bft) 100,00 %
26.12.2020 18:02 4,8 C 4,4 C 1,6 C 86 % 1017,0 hPa 0,0 l/m 0 min 0 min 0 W/m 16,1 km/h (3 Bft) 100,00 %
26.12.2020 18:04 4,8 C 4,4 C 1,6 C 86 % 1016,9 hPa 0,0 l/m 0 min 0 min 0 W/m 25,7 km/h (4 Bft) 100,00 %
26.12.2020 18:08 4,7 C 4,4 C 1,6 C 86 % 1016,9 hPa 0,0 l/m 0 min 0 min 0 W/m 35,4 km/h (5 Bft) 96,81 %
26.12.2020 18:10 4,8 C 4,4 C 1,6 C 86 % 1016,7 hPa 0,0 l/m 0 min 0 min 0 W/m 25,7 km/h (4 Bft) 100,00 %
26.12.2020 18:12 4,7 C 4,4 C 1,6 C 86 % 1016,7 hPa 0,0 l/m 0 min 0 min 0 W/m 29,0 km/h (5 Bft) 100,00 %
26.12.2020 18:14 4,7 C 4,4 C 1,6 C 86 % 1016,7 hPa 0,0 l/m 0 min 0 min 0 W/m 25,7 km/h (4 Bft) 100,00 %
26.12.2020 18:16 4,7 C 3,9 C 1,6 C 86 % 1016,6 hPa 0,0 l/m 0 min 0 min 0 W/m 22,5 km/h (4 Bft) 97,87 %
26.12.2020 18:18 4,7 C 3,9 C 1,6 C 86 % 1016,6 hPa 0,0 l/m 0 min 0 min 0 W/m 25,7 km/h (4 Bft) 100,00 %
26.12.2020 18:20 4,7 C 4,4 C 1,6 C 86 % 1016,5 hPa 0,0 l/m 0 min 0 min 0 W/m 41,8 km/h (6 Bft) 100,00 %
26.12.2020 18:22 4,7 C 3,9 C 1,6 C 86 % 1016,5 hPa 0,0 l/m 0 min 0 min 0 W/m 38,6 km/h (5 Bft) 100,00 %
26.12.2020 18:24 4,7 C 3,9 C 1,6 C 86 % 1016,5 hPa 0,0 l/m 0 min 0 min 0 W/m 38,6 km/h (5 Bft) 100,00 %
26.12.2020 18:26 4,6 C 3,9 C 1,6 C 86 % 1016,4 hPa 0,0 l/m 0 min 0 min 0 W/m 16,1 km/h (3 Bft) 100,00 %
26.12.2020 18:28 4,6 C 3,9 C 1,6 C 86 % 1016,4 hPa 0,0 l/m 0 min 0 min 0 W/m 32,2 km/h (5 Bft) 100,00 %
26.12.2020 18:30 4,6 C 3,9 C 1,6 C 86 % 1016,2 hPa 0,0 l/m 0 min 0 min 0 W/m 22,5 km/h (4 Bft) 97,87 %
26.12.2020 18:32 4,6 C 3,9 C 1,6 C 86 % 1016,2 hPa 0,0 l/m 0 min 0 min 0 W/m 0,0 km/h (0 Bft) 100,00 %
26.12.2020 18:34 4,6 C 3,9 C 1,6 C 86 % 1016,1 hPa 0,0 l/m 0 min 0 min 0 W/m 29,0 km/h (5 Bft) 100,00 %
26.12.2020 18:36 4,6 C 3,9 C 1,6 C 86 % 1016,2 hPa 0,0 l/m 0 min 0 min 0 W/m 29,0 km/h (5 Bft) 100,00 %
26.12.2020 18:38 4,6 C 3,9 C 1,6 C 86 % 1016,2 hPa 0,0 l/m 0 min 0 min 0 W/m 25,7 km/h (4 Bft) 100,00 %
26.12.2020 18:40 4,6 C 3,9 C 1,6 C 86 % 1016,2 hPa 0,0 l/m 0 min 0 min 0 W/m 29,0 km/h (5 Bft) 100,00 %
26.12.2020 18:42 4,6 C 3,9 C 1,6 C 86 % 1016,2 hPa 0,0 l/m 0 min 0 min 0 W/m 45,1 km/h (6 Bft) 97,87 %
26.12.2020 18:44 4,6 C 3,9 C 1,6 C 86 % 1016,2 hPa 0,0 l/m 0 min 0 min 0 W/m 32,2 km/h (5 Bft) 100,00 %
26.12.2020 18:46 4,6 C 3,9 C 1,6 C 86 % 1016,1 hPa 0,0 l/m 0 min 0 min 0 W/m 16,1 km/h (3 Bft) 97,87 %
26.12.2020 18:48 4,6 C 3,9 C 1,6 C 86 % 1016,1 hPa 0,0 l/m 0 min 0 min 0 W/m 0,0 km/h (0 Bft) 95,74 %
26.12.2020 18:50 4,6 C 4,4 C 1,6 C 86 % 1016,1 hPa 0,0 l/m 0 min 0 min 0 W/m 45,1 km/h (6 Bft) 97,87 %
26.12.2020 18:52 4,6 C 4,4 C 1,6 C 86 % 1016,1 hPa 0,0 l/m 0 min 0 min 0 W/m 32,2 km/h (5 Bft) 93,62 %
26.12.2020 18:54 4,6 C 4,4 C 1,6 C 86 % 1015,9 hPa 0,0 l/m 0 min 0 min 0 W/m 25,7 km/h (4 Bft) 97,87 %
26.12.2020 18:56 4,6 C 4,4 C 1,6 C 86 % 1015,9 hPa 0,0 l/m 0 min 0 min 0 W/m 38,6 km/h (5 Bft) 95,65 %
26.12.2020 18:58 4,6 C 4,4 C 1,6 C 86 % 1015,8 hPa 0,0 l/m 0 min 0 min 0 W/m 22,5 km/h (4 Bft) 97,87 %
26.12.2020 19:00 4,6 C 3,9 C 1,6 C 86 % 1015,8 hPa 0,0 l/m 0 min 0 min 0 W/m 3,2 km/h (1 Bft) 95,74 %
26.12.2020 19:02 4,6 C 4,4 C 1,6 C 86 % 1015,7 hPa 0,0 l/m 0 min 0 min 0 W/m 29,0 km/h (5 Bft) 95,83 %
26.12.2020 19:04 4,6 C 4,4 C 1,6 C 86 % 1015,8 hPa 0,0 l/m 0 min 0 min 0 W/m 29,0 km/h (5 Bft) 97,87 %
26.12.2020 19:06 4,6 C 4,4 C 1,6 C 86 % 1015,8 hPa 0,0 l/m 0 min 0 min 0 W/m 25,7 km/h (4 Bft) 95,74 %
26.12.2020 19:08 4,6 C 4,4 C 1,6 C 86 % 1015,7 hPa 0,0 l/m 0 min 0 min 0 W/m 41,8 km/h (6 Bft) 97,83 %
26.12.2020 19:10 4,6 C 4,4 C 1,6 C 86 % 1015,8 hPa 0,0 l/m 0 min 0 min 0 W/m 19,3 km/h (3 Bft) 97,22 %
26.12.2020 19:12 4,6 C 4,4 C 1,6 C 86 % 1015,9 hPa 0,0 l/m 0 min 0 min 0 W/m 35,4 km/h (5 Bft) 97,83 %
26.12.2020 19:14 4,6 C 3,9 C 1,6 C 86 % 1015,7 hPa 0,0 l/m 0 min 0 min 0 W/m 19,3 km/h (3 Bft) 93,62 %
26.12.2020 19:16 4,6 C 3,9 C 1,6 C 86 % 1015,6 hPa 0,0 l/m 0 min 0 min 0 W/m 16,1 km/h (3 Bft) 93,62 %
26.12.2020 19:18 4,6 C 3,9 C 1,6 C 86 % 1015,6 hPa 0,0 l/m 0 min 0 min 0 W/m 38,6 km/h (5 Bft) 95,74 %
26.12.2020 19:20 4,6 C 3,9 C 1,6 C 86 % 1015,6 hPa 0,0 l/m 0 min 0 min 0 W/m 25,7 km/h (4 Bft) 89,36 %
26.12.2020 19:22 4,6 C 3,9 C 1,6 C 86 % 1015,7 hPa 0,0 l/m 0 min 0 min 0 W/m 19,3 km/h (3 Bft) 93,48 %
26.12.2020 19:24 4,6 C 3,9 C 1,6 C 86 % 1015,6 hPa 0,0 l/m 0 min 0 min 0 W/m 22,5 km/h (4 Bft) 91,49 %
26.12.2020 19:26 4,6 C 3,9 C 1,6 C 86 % 1015,7 hPa 0,0 l/m 0 min 0 min 0 W/m 32,2 km/h (5 Bft) 91,49 %
26.12.2020 19:28 4,6 C 3,9 C 1,6 C 86 % 1015,6 hPa 0,0 l/m 0 min 0 min 0 W/m 32,2 km/h (5 Bft) 93,62 %
26.12.2020 19:30 4,6 C 3,9 C 1,6 C 86 % 1015,5 hPa 0,0 l/m 0 min 0 min 0 W/m 38,6 km/h (5 Bft) 93,62 %
26.12.2020 19:32 4,6 C 3,9 C 1,6 C 86 % 1015,5 hPa 0,0 l/m 0 min 0 min 0 W/m 22,5 km/h (4 Bft) 93,62 %
26.12.2020 19:34 4,6 C 3,9 C 1,6 C 86 % 1015,4 hPa 0,0 l/m 0 min 0 min 0 W/m 16,1 km/h (3 Bft) 95,65 %
26.12.2020 19:36 4,5 C 3,9 C 1,6 C 86 % 1015,4 hPa 0,0 l/m 0 min 0 min 0 W/m 25,7 km/h (4 Bft) 95,74 %
26.12.2020 19:38 4,5 C 3,9 C 1,6 C 86 % 1015,3 hPa 0,0 l/m 0 min 0 min 0 W/m 22,5 km/h (4 Bft) 95,74 %
26.12.2020 19:40 4,5 C 3,9 C 1,6 C 86 % 1015,3 hPa 0,0 l/m 0 min 0 min 0 W/m 19,3 km/h (3 Bft) 94,55 %
26.12.2020 19:42 4,5 C 3,9 C 1,6 C 87 % 1015,2 hPa 0,0 l/m 0 min 0 min 0 W/m 19,3 km/h (3 Bft) 95,65 %
26.12.2020 19:44 4,5 C 3,9 C 1,6 C 87 % 1015,1 hPa 0,0 l/m 0 min 0 min 0 W/m 22,5 km/h (4 Bft) 93,62 %
26.12.2020 19:46 4,5 C 3,9 C 1,6 C 87 % 1015,0 hPa 0,0 l/m 0 min 0 min 0 W/m 29,0 km/h (5 Bft) 95,74 %
26.12.2020 19:48 4,5 C 3,9 C 1,6 C 87 % 1015,0 hPa 0,0 l/m 0 min 0 min 0 W/m 41,8 km/h (6 Bft) 93,62 %
26.12.2020 19:50 4,5 C 3,9 C 1,6 C 87 % 1015,0 hPa 0,0 l/m 0 min 0 min 0 W/m 32,2 km/h (5 Bft) 95,74 %
26.12.2020 19:52 4,4 C 3,9 C 1,1 C 87 % 1015,0 hPa 0,0 l/m 0 min 0 min 0 W/m 12,9 km/h (3 Bft) 95,74 %
26.12.2020 19:54 4,4 C 3,9 C 1,1 C 87 % 1015,0 hPa 0,0 l/m 0 min 0 min 0 W/m 3,2 km/h (1 Bft) 95,65 %
26.12.2020 19:56 4,4 C 3,9 C 1,1 C 87 % 1015,0 hPa 0,0 l/m 0 min 0 min 0 W/m 41,8 km/h (6 Bft) 95,74 %
26.12.2020 19:58 4,4 C 3,9 C 1,1 C 87 % 1014,9 hPa 0,0 l/m 0 min 0 min 0 W/m 41,8 km/h (6 Bft) 97,87 %
26.12.2020 20:00 4,4 C 3,9 C 1,1 C 87 % 1014,9 hPa 0,0 l/m 0 min 0 min 0 W/m 22,5 km/h (4 Bft) 97,87 %
26.12.2020 20:02 4,4 C 3,9 C 1,1 C 87 % 1014,8 hPa 0,0 l/m 0 min 0 min 0 W/m 22,5 km/h (4 Bft) 95,83 %
26.12.2020 20:04 4,3 C 3,9 C 1,1 C 87 % 1014,8 hPa 0,0 l/m 0 min 0 min 0 W/m 19,3 km/h (3 Bft) 97,87 %
26.12.2020 20:06 4,4 C 3,9 C 1,1 C 87 % 1014,8 hPa 0,0 l/m 0 min 0 min 0 W/m 35,4 km/h (5 Bft) 95,65 %
26.12.2020 20:08 4,4 C 3,9 C 1,6 C 87 % 1014,7 hPa 0,0 l/m 0 min 0 min 0 W/m 22,5 km/h (4 Bft) 97,87 %
26.12.2020 20:10 4,3 C 3,9 C 1,6 C 87 % 1014,6 hPa 0,0 l/m 0 min 0 min 0 W/m 32,2 km/h (5 Bft) 97,87 %
26.12.2020 20:12 4,3 C 3,9 C 1,6 C 87 % 1014,7 hPa 0,0 l/m 0 min 0 min 0 W/m 29,0 km/h (5 Bft) 97,87 %
26.12.2020 20:14 4,3 C 3,9 C 1,6 C 87 % 1014,6 hPa 0,0 l/m 0 min 0 min 0 W/m 22,5 km/h (4 Bft) 97,87 %
26.12.2020 20:16 4,3 C 3,9 C 1,6 C 87 % 1014,6 hPa 0,0 l/m 0 min 0 min 0 W/m 41,8 km/h (6 Bft) 97,87 %
26.12.2020 20:18 4,4 C 3,9 C 1,6 C 87 % 1014,5 hPa 0,0 l/m 0 min 0 min 0 W/m 32,2 km/h (5 Bft) 97,83 %
26.12.2020 20:20 4,4 C 3,9 C 1,6 C 87 % 1014,5 hPa 0,0 l/m 0 min 0 min 0 W/m 22,5 km/h (4 Bft) 97,87 %
26.12.2020 20:22 4,4 C 3,9 C 1,6 C 87 % 1014,4 hPa 0,0 l/m 0 min 0 min 0 W/m 32,2 km/h (5 Bft) 97,87 %
26.12.2020 20:24 4,4 C 3,9 C 1,6 C 87 % 1014,3 hPa 0,0 l/m 0 min 0 min 0 W/m 32,2 km/h (5 Bft) 97,87 %
26.12.2020 20:26 4,4 C 3,9 C 1,6 C 87 % 1014,3 hPa 0,0 l/m 0 min 0 min 0 W/m 35,4 km/h (5 Bft) 95,74 %
26.12.2020 20:28 4,4 C 3,9 C 1,6 C 87 % 1014,2 hPa 0,0 l/m 0 min 0 min 0 W/m 22,5 km/h (4 Bft) 97,87 %
26.12.2020 20:30 4,4 C 3,9 C 1,6 C 87 % 1014,2 hPa 0,0 l/m 0 min 0 min 0 W/m 45,1 km/h (6 Bft) 100,00 %
26.12.2020 20:32 4,4 C 3,9 C 1,6 C 87 % 1014,1 hPa 0,0 l/m 0 min 0 min 0 W/m 35,4 km/h (5 Bft) 100,00 %
26.12.2020 20:34 4,4 C 3,9 C 1,6 C 87 % 1014,1 hPa 0,0 l/m 0 min 0 min 0 W/m 25,7 km/h (4 Bft) 100,00 %
26.12.2020 20:36 4,4 C 3,9 C 1,6 C 86 % 1014,1 hPa 0,0 l/m 0 min 0 min 0 W/m 38,6 km/h (5 Bft) 100,00 %
26.12.2020 20:38 4,4 C 3,9 C 1,6 C 86 % 1014,0 hPa 0,0 l/m 0 min 0 min 0 W/m 22,5 km/h (4 Bft) 97,87 %
26.12.2020 20:40 4,4 C 3,9 C 1,6 C 86 % 1014,0 hPa 0,0 l/m 0 min 0 min 0 W/m 22,5 km/h (4 Bft) 100,00 %
26.12.2020 20:42 4,4 C 3,9 C 1,6 C 86 % 1014,0 hPa 0,0 l/m 0 min 0 min 0 W/m 38,6 km/h (5 Bft) 100,00 %
26.12.2020 20:44 4,4 C 3,9 C 1,6 C 86 % 1013,9 hPa 0,0 l/m 0 min 0 min 0 W/m 25,7 km/h (4 Bft) 100,00 %
26.12.2020 20:46 4,4 C 3,9 C 1,6 C 86 % 1013,8 hPa 0,0 l/m 0 min 0 min 0 W/m 16,1 km/h (3 Bft) 97,87 %
26.12.2020 20:48 4,4 C 3,9 C 1,6 C 86 % 1013,7 hPa 0,0 l/m 0 min 0 min 0 W/m 19,3 km/h (3 Bft) 100,00 %
26.12.2020 20:50 4,4 C 3,9 C 1,6 C 86 % 1013,7 hPa 0,0 l/m 0 min 2 min 0 W/m 19,3 km/h (3 Bft) 100,00 %
26.12.2020 20:52 4,5 C 3,9 C 1,1 C 86 % 1013,7 hPa 0,0 l/m 0 min 2 min 0 W/m 32,2 km/h (5 Bft) 100,00 %
26.12.2020 20:54 4,5 C 3,9 C 1,1 C 86 % 1013,7 hPa 0,0 l/m 0 min 2 min 0 W/m 35,4 km/h (5 Bft) 100,00 %
26.12.2020 20:56 4,5 C 3,9 C 1,1 C 86 % 1013,7 hPa 0,0 l/m 0 min 0 min 0 W/m 29,0 km/h (5 Bft) 100,00 %
26.12.2020 20:58 4,5 C 3,9 C 1,1 C 87 % 1013,7 hPa 0,0 l/m 0 min 0 min 0 W/m 16,1 km/h (3 Bft) 98,15 %
26.12.2020 21:00 4,4 C 3,9 C 1,1 C 87 % 1013,6 hPa 0,0 l/m 0 min 0 min 0 W/m 25,7 km/h (4 Bft) 100,00 %
26.12.2020 21:02 4,5 C 3,9 C 1,1 C 87 % 1013,6 hPa 0,0 l/m 0 min 0 min 0 W/m 38,6 km/h (5 Bft) 100,00 %
26.12.2020 21:04 4,5 C 3,9 C 1,6 C 87 % 1013,6 hPa 0,0 l/m 0 min 0 min 0 W/m 29,0 km/h (5 Bft) 100,00 %
26.12.2020 21:06 4,4 C 3,9 C 1,6 C 87 % 1013,5 hPa 0,0 l/m 0 min 0 min 0 W/m 12,9 km/h (3 Bft) 100,00 %
26.12.2020 21:08 4,5 C 3,9 C 1,6 C 87 % 1013,5 hPa 0,0 l/m 0 min 0 min 0 W/m 29,0 km/h (5 Bft) 100,00 %
26.12.2020 21:10 4,5 C 3,9 C 1,6 C 87 % 1013,4 hPa 0,0 l/m 0 min 0 min 0 W/m 29,0 km/h (5 Bft) 100,00 %
26.12.2020 21:12 4,5 C 3,9 C 1,6 C 86 % 1013,4 hPa 0,0 l/m 0 min 0 min 0 W/m 22,5 km/h (4 Bft) 97,87 %
26.12.2020 21:14 4,5 C 3,9 C 1,6 C 86 % 1013,5 hPa 0,0 l/m 0 min 0 min 0 W/m 29,0 km/h (5 Bft) 100,00 %
26.12.2020 21:16 4,5 C 3,9 C 1,6 C 86 % 1013,4 hPa 0,0 l/m 0 min 0 min 0 W/m 35,4 km/h (5 Bft) 97,87 %
26.12.2020 21:18 4,5 C 3,9 C 1,6 C 86 % 1013,3 hPa 0,0 l/m 0 min 0 min 0 W/m 48,3 km/h (6 Bft) 100,00 %
26.12.2020 21:20 4,5 C 3,9 C 1,6 C 86 % 1013,2 hPa 0,0 l/m 0 min 0 min 0 W/m 35,4 km/h (5 Bft) 97,87 %
26.12.2020 21:22 4,5 C 3,9 C 1,6 C 86 % 1013,3 hPa 0,0 l/m 0 min 0 min 0 W/m 45,1 km/h (6 Bft) 100,00 %
26.12.2020 21:24 4,5 C 4,4 C 1,6 C 86 % 1013,3 hPa 0,0 l/m 0 min 0 min 0 W/m 32,2 km/h (5 Bft) 100,00 %
26.12.2020 21:26 4,6 C 3,9 C 1,6 C 86 % 1013,2 hPa 0,0 l/m 0 min 0 min 0 W/m 38,6 km/h (5 Bft) 100,00 %
26.12.2020 21:28 4,6 C 3,9 C 1,6 C 86 % 1013,2 hPa 0,0 l/m 0 min 2 min 0 W/m 41,8 km/h (6 Bft) 100,00 %
26.12.2020 21:30 4,6 C 3,9 C 1,6 C 86 % 1013,2 hPa 0,0 l/m 0 min 0 min 0 W/m 32,2 km/h (5 Bft) 100,00 %
26.12.2020 21:32 4,6 C 3,9 C 1,6 C 86 % 1013,2 hPa 0,0 l/m 0 min 0 min 0 W/m 29,0 km/h (5 Bft) 100,00 %
26.12.2020 21:34 4,6 C 3,9 C 1,6 C 86 % 1013,1 hPa 0,0 l/m 0 min 0 min 0 W/m 0,0 km/h (0 Bft) 100,00 %
26.12.2020 21:36 4,6 C 3,9 C 1,6 C 86 % 1013,0 hPa 0,0 l/m 0 min 0 min 0 W/m 35,4 km/h (5 Bft) 96,43 %
26.12.2020 21:38 4,6 C 3,9 C 1,6 C 86 % 1013,1 hPa 0,0 l/m 0 min 0 min 0 W/m 45,1 km/h (6 Bft) 97,96 %
26.12.2020 21:40 4,6 C 3,9 C 1,6 C 86 % 1013,0 hPa 0,0 l/m 0 min 0 min 0 W/m 38,6 km/h (5 Bft) 97,87 %
26.12.2020 21:42 4,6 C 3,9 C 1,6 C 86 % 1012,9 hPa 0,0 l/m 0 min 0 min 0 W/m 29,0 km/h (5 Bft) 93,62 %
26.12.2020 21:44 4,6 C 3,9 C 1,6 C 86 % 1012,9 hPa 0,0 l/m 0 min 0 min 0 W/m 38,6 km/h (5 Bft) 97,87 %
26.12.2020 21:46 4,7 C 4,4 C 1,6 C 86 % 1012,9 hPa 0,0 l/m 0 min 0 min 0 W/m 32,2 km/h (5 Bft) 97,14 %
26.12.2020 21:48 4,7 C 4,4 C 1,6 C 86 % 1012,8 hPa 0,0 l/m 0 min 0 min 0 W/m 35,4 km/h (5 Bft) 97,92 %
26.12.2020 21:50 4,7 C 4,4 C 1,6 C 86 % 1012,6 hPa 0,0 l/m 0 min 0 min 0 W/m 22,5 km/h (4 Bft) 97,87 %
26.12.2020 21:52 4,7 C 4,4 C 1,6 C 86 % 1012,7 hPa 0,0 l/m 0 min 0 min 0 W/m 51,5 km/h (7 Bft) 93,48 %
26.12.2020 21:54 4,7 C 4,4 C 1,6 C 86 % 1012,7 hPa 0,0 l/m 0 min 0 min 0 W/m 35,4 km/h (5 Bft) 95,92 %
26.12.2020 21:56 4,7 C 4,4 C 1,6 C 86 % 1012,6 hPa 0,0 l/m 0 min 0 min 0 W/m 38,6 km/h (5 Bft) 93,62 %
26.12.2020 21:58 4,8 C 3,9 C 1,6 C 86 % 1012,6 hPa 0,0 l/m 0 min 2 min 0 W/m 29,0 km/h (5 Bft) 95,74 %
26.12.2020 22:00 4,8 C 3,9 C 1,6 C 86 % 1012,5 hPa 0,0 l/m 0 min 0 min 0 W/m 38,6 km/h (5 Bft) 93,62 %
26.12.2020 22:02 4,8 C 3,9 C 1,6 C 86 % 1012,5 hPa 0,0 l/m 0 min 0 min 0 W/m 35,4 km/h (5 Bft) 95,74 %
26.12.2020 22:04 4,8 C 4,4 C 1,6 C 86 % 1012,6 hPa 0,0 l/m 0 min 0 min 0 W/m 38,6 km/h (5 Bft) 95,65 %
26.12.2020 22:06 4,8 C 4,4 C 1,6 C 86 % 1012,4 hPa 0,0 l/m 0 min 0 min 0 W/m 29,0 km/h (5 Bft) 94,44 %
26.12.2020 22:08 4,8 C 4,4 C 1,6 C 86 % 1012,5 hPa 0,0 l/m 0 min 0 min 0 W/m 38,6 km/h (5 Bft) 95,74 %
26.12.2020 22:10 4,8 C 4,4 C 1,6 C 86 % 1012,3 hPa 0,0 l/m 0 min 0 min 0 W/m 25,7 km/h (4 Bft) 93,62 %
26.12.2020 22:12 4,8 C 4,4 C 1,6 C 86 % 1012,3 hPa 0,0 l/m 0 min 0 min 0 W/m 32,2 km/h (5 Bft) 95,65 %
26.12.2020 22:14 4,8 C 4,4 C 1,6 C 86 % 1012,2 hPa 0,0 l/m 0 min 0 min 0 W/m 25,7 km/h (4 Bft) 95,74 %
26.12.2020 22:16 4,8 C 3,9 C 1,6 C 86 % 1012,1 hPa 0,0 l/m 0 min 2 min 0 W/m 19,3 km/h (3 Bft) 95,74 %
26.12.2020 22:18 4,8 C 3,9 C 1,6 C 86 % 1012,1 hPa 0,0 l/m 0 min 0 min 0 W/m 29,0 km/h (5 Bft) 95,74 %
26.12.2020 22:20 4,8 C 4,4 C 1,6 C 86 % 1011,9 hPa 0,0 l/m 0 min 0 min 0 W/m 29,0 km/h (5 Bft) 94,74 %
26.12.2020 22:22 4,8 C 4,4 C 1,6 C 86 % 1012,0 hPa 0,0 l/m 0 min 0 min 0 W/m 35,4 km/h (5 Bft) 93,62 %
26.12.2020 22:24 4,8 C 4,4 C 1,6 C 86 % 1012,0 hPa 0,0 l/m 0 min 0 min 0 W/m 35,4 km/h (5 Bft) 96,49 %
26.12.2020 22:26 4,8 C 4,4 C 1,6 C 86 % 1011,9 hPa 0,0 l/m 0 min 0 min 0 W/m 22,5 km/h (4 Bft) 97,22 %
26.12.2020 22:28 4,8 C 4,4 C 1,6 C 86 % 1011,9 hPa 0,0 l/m 0 min 0 min 0 W/m 0,0 km/h (0 Bft) 95,74 %
26.12.2020 22:30 4,8 C 4,4 C 1,6 C 86 % 1011,8 hPa 0,0 l/m 0 min 0 min 0 W/m 25,7 km/h (4 Bft) 97,87 %
26.12.2020 22:32 4,8 C 4,4 C 1,6 C 86 % 1011,8 hPa 0,0 l/m 0 min 0 min 0 W/m 35,4 km/h (5 Bft) 97,92 %
26.12.2020 22:34 4,8 C 4,4 C 1,6 C 86 % 1011,7 hPa 0,0 l/m 0 min 0 min 0 W/m 48,3 km/h (6 Bft) 97,87 %
26.12.2020 22:36 4,8 C 4,4 C 1,6 C 86 % 1011,7 hPa 0,0 l/m 0 min 0 min 0 W/m 29,0 km/h (5 Bft) 97,87 %
26.12.2020 22:38 4,8 C 4,4 C 1,6 C 86 % 1011,6 hPa 0,0 l/m 0 min 0 min 0 W/m 3,2 km/h (1 Bft) 97,83 %
26.12.2020 22:40 4,8 C 4,4 C 1,6 C 86 % 1011,4 hPa 0,0 l/m 0 min 0 min 0 W/m 32,2 km/h (5 Bft) 100,00 %
26.12.2020 22:42 4,8 C 4,4 C 1,6 C 86 % 1011,3 hPa 0,0 l/m 0 min 0 min 0 W/m 32,2 km/h (5 Bft) 100,00 %
26.12.2020 22:44 4,8 C 4,4 C 1,6 C 86 % 1011,3 hPa 0,0 l/m 0 min 0 min 0 W/m 35,4 km/h (5 Bft) 95,74 %
26.12.2020 22:46 4,8 C 4,4 C 1,6 C 86 % 1011,2 hPa 0,0 l/m 0 min 0 min 0 W/m 38,6 km/h (5 Bft) 100,00 %
26.12.2020 22:48 4,8 C 4,4 C 1,6 C 86 % 1011,1 hPa 0,0 l/m 0 min 0 min 0 W/m 32,2 km/h (5 Bft) 100,00 %
26.12.2020 22:50 4,8 C 4,4 C 1,6 C 86 % 1011,0 hPa 0,0 l/m 0 min 0 min 0 W/m 29,0 km/h (5 Bft) 45,95 %
26.12.2020 22:52 4,8 C 4,4 C 1,6 C 86 % 1011,0 hPa 0,0 l/m 0 min 0 min 0 W/m 38,6 km/h (5 Bft) 100,00 %
26.12.2020 22:54 4,8 C 4,4 C 1,6 C 85 % 1010,8 hPa 0,0 l/m 0 min 0 min 0 W/m 41,8 km/h (6 Bft) 100,00 %
26.12.2020 22:56 4,8 C 4,4 C 1,6 C 85 % 1010,7 hPa 0,0 l/m 0 min 0 min 0 W/m 32,2 km/h (5 Bft) 100,00 %
26.12.2020 22:58 4,8 C 4,4 C 1,6 C 85 % 1010,8 hPa 0,0 l/m 0 min 0 min 0 W/m 29,0 km/h (5 Bft) 100,00 %
26.12.2020 23:00 4,8 C 4,4 C 1,6 C 85 % 1010,8 hPa 0,0 l/m 0 min 0 min 0 W/m 41,8 km/h (6 Bft) 100,00 %
26.12.2020 23:02 4,8 C 4,4 C 1,6 C 85 % 1010,7 hPa 0,0 l/m 0 min 0 min 0 W/m 45,1 km/h (6 Bft) 98,15 %
26.12.2020 23:04 4,8 C 4,4 C 1,6 C 85 % 1010,7 hPa 0,0 l/m 0 min 0 min 0 W/m 45,1 km/h (6 Bft) 97,62 %
26.12.2020 23:06 4,8 C 4,4 C 1,6 C 85 % 1010,8 hPa 0,0 l/m 0 min 0 min 0 W/m 35,4 km/h (5 Bft) 100,00 %
26.12.2020 23:08 4,8 C 4,4 C 1,6 C 85 % 1010,7 hPa 0,0 l/m 0 min 0 min 0 W/m 25,7 km/h (4 Bft) 100,00 %
26.12.2020 23:10 4,8 C 4,4 C 1,6 C 85 % 1010,7 hPa 0,0 l/m 0 min 0 min 0 W/m 29,0 km/h (5 Bft) 97,14 %
26.12.2020 23:12 4,8 C 4,4 C 1,6 C 85 % 1010,7 hPa 0,0 l/m 0 min 0 min 0 W/m 41,8 km/h (6 Bft) 100,00 %
26.12.2020 23:14 4,8 C 4,4 C 1,6 C 85 % 1010,6 hPa 0,0 l/m 0 min 0 min 0 W/m 45,1 km/h (6 Bft) 97,83 %
26.12.2020 23:16 4,8 C 4,4 C 1,6 C 85 % 1010,6 hPa 0,0 l/m 0 min 0 min 0 W/m 38,6 km/h (5 Bft) 100,00 %
26.12.2020 23:18 4,8 C 4,4 C 1,6 C 85 % 1010,4 hPa 0,0 l/m 0 min 0 min 0 W/m 35,4 km/h (5 Bft) 97,96 %
26.12.2020 23:20 4,8 C 4,4 C 1,6 C 85 % 1010,3 hPa 0,0 l/m 0 min 0 min 0 W/m 45,1 km/h (6 Bft) 100,00 %
26.12.2020 23:22 4,8 C 4,4 C 1,6 C 85 % 1010,3 hPa 0,0 l/m 0 min 0 min 0 W/m 35,4 km/h (5 Bft) 100,00 %
26.12.2020 23:24 4,8 C 4,4 C 1,6 C 85 % 1010,1 hPa 0,0 l/m 0 min 0 min 0 W/m 3,2 km/h (1 Bft) 97,83 %
26.12.2020 23:26 4,8 C 4,4 C 1,6 C 85 % 1010,1 hPa 0,0 l/m 0 min 0 min 0 W/m 35,4 km/h (5 Bft) 100,00 %
26.12.2020 23:28 4,8 C 4,4 C 1,6 C 85 % 1010,0 hPa 0,0 l/m 0 min 0 min 0 W/m 38,6 km/h (5 Bft) 100,00 %
26.12.2020 23:30 4,8 C 4,4 C 1,6 C 85 % 1010,1 hPa 0,0 l/m 0 min 0 min 0 W/m 32,2 km/h (5 Bft) 100,00 %
26.12.2020 23:32 4,8 C 4,4 C 1,6 C 85 % 1010,0 hPa 0,0 l/m 0 min 0 min 0 W/m 35,4 km/h (5 Bft) 100,00 %
26.12.2020 23:34 4,8 C 4,4 C 1,6 C 85 % 1010,0 hPa 0,0 l/m 0 min 0 min 0 W/m 35,4 km/h (5 Bft) 97,87 %
26.12.2020 23:36 4,8 C 4,4 C 1,6 C 85 % 1009,9 hPa 0,0 l/m 0 min 0 min 0 W/m 41,8 km/h (6 Bft) 97,83 %
26.12.2020 23:38 4,8 C 4,4 C 1,6 C 85 % 1009,9 hPa 0,0 l/m 0 min 0 min 0 W/m 35,4 km/h (5 Bft) 97,87 %
26.12.2020 23:40 4,8 C 4,4 C 1,6 C 85 % 1009,8 hPa 0,0 l/m 0 min 0 min 0 W/m 38,6 km/h (5 Bft) 95,74 %
26.12.2020 23:42 4,8 C 4,4 C 1,6 C 85 % 1009,8 hPa 0,0 l/m 0 min 0 min 0 W/m 32,2 km/h (5 Bft) 97,87 %
26.12.2020 23:44 4,8 C 4,4 C 1,6 C 85 % 1009,8 hPa 0,0 l/m 0 min 0 min 0 W/m 38,6 km/h (5 Bft) 97,87 %
26.12.2020 23:46 4,8 C 4,4 C 1,6 C 85 % 1009,8 hPa 0,0 l/m 0 min 0 min 0 W/m 45,1 km/h (6 Bft) 97,87 %
26.12.2020 23:48 4,9 C 4,4 C 1,6 C 85 % 1009,6 hPa 0,0 l/m 0 min 0 min 0 W/m 32,2 km/h (5 Bft) 97,87 %
26.12.2020 23:50 4,8 C 4,4 C 1,6 C 85 % 1009,5 hPa 0,0 l/m 0 min 0 min 0 W/m 45,1 km/h (6 Bft) 97,87 %
26.12.2020 23:52 4,8 C 4,4 C 1,6 C 85 % 1009,4 hPa 0,0 l/m 0 min 0 min 0 W/m 25,7 km/h (4 Bft) 97,87 %
26.12.2020 23:54 4,8 C 4,4 C 1,6 C 85 % 1009,3 hPa 0,0 l/m 0 min 0 min 0 W/m 41,8 km/h (6 Bft) 97,87 %
26.12.2020 23:56 4,8 C 4,4 C 1,6 C 85 % 1009,3 hPa 0,0 l/m 0 min 0 min 0 W/m 35,4 km/h (5 Bft) 95,35 %
26.12.2020 23:58 4,8 C 4,4 C 1,6 C 85 % 1009,2 hPa 0,0 l/m 0 min 0 min 0 W/m 35,4 km/h (5 Bft) 97,87 %
_ Min-Zeit 02:52 00:00 00:00 12:54 23:58 - - - - 00:00 22:50
Minimum _ 1,6 C 1,1 C 0,5 C 83 % 1009,2 hPa - - - - 0,0 km/h (0 Bft) 45,95 %
_ Max-Zeit 12:50 12:34 12:36 03:12 00:46 10:52 12:28 20:50 12:44 21:52 00:54
Maximum _ 5,1 C 7,8 C 5,5 C 97 % 1025,8 hPa 0,2 l/m 3 min 2 min 318 W/m 51,5 km/h
S-SO (7 Bft)
100,00 %
Durchschnitt _ 3,4 C 3,1 C 1,6 C 91 % 1020,8 hPa #0,2 l/m #52 min. #12 min. 71 W/m 16,0 km/h (3 Bft) 97,26 %
© 2020 W. Hausmann